<?xml version="1.0" encoding="UTF-8" standalone="no" ?>
<gpx xmlns="http://www.topografix.com/GPX/1/1" xmlns:xsi="http://www.w3.org/2001/XMLSchema-instance" xsi:schemaLocation="http://www.topografix.com/GPX/1/1 http://www.topografix.com/GPX/1/1/gpx.xsd" version="1.1" creator="VisuGPX - https://www.visugpx.com">
  <metadata>
    <name>st maurice sur moselle 88560</name>
  </metadata>
  <trk>
    <name><![CDATA[st maurice sur moselle 88560_1]]></name>
    <trkseg>
      <trkpt lat="47.85731" lon="6.8307">
        <ele>574</ele>
        <time>2020-08-16T15:08:39Z</time>
      </trkpt>
      <trkpt lat="47.85726" lon="6.83068">
        <ele>574.1</ele>
        <time>2020-08-16T15:08:55Z</time>
      </trkpt>
      <trkpt lat="47.85725" lon="6.83062">
        <ele>573.1</ele>
        <time>2020-08-16T15:09:03Z</time>
      </trkpt>
      <trkpt lat="47.85726" lon="6.83055">
        <ele>571.8</ele>
        <time>2020-08-16T15:09:10Z</time>
      </trkpt>
      <trkpt lat="47.85728" lon="6.83048">
        <ele>571.1</ele>
        <time>2020-08-16T15:09:16Z</time>
      </trkpt>
      <trkpt lat="47.8573" lon="6.83041">
        <ele>570.5</ele>
        <time>2020-08-16T15:09:22Z</time>
      </trkpt>
      <trkpt lat="47.85733" lon="6.83034">
        <ele>570.1</ele>
        <time>2020-08-16T15:09:27Z</time>
      </trkpt>
      <trkpt lat="47.85735" lon="6.83027">
        <ele>569.9</ele>
        <time>2020-08-16T15:09:32Z</time>
      </trkpt>
      <trkpt lat="47.85739" lon="6.83021">
        <ele>569.7</ele>
        <time>2020-08-16T15:09:37Z</time>
      </trkpt>
      <trkpt lat="47.85743" lon="6.83017">
        <ele>569.7</ele>
        <time>2020-08-16T15:09:40Z</time>
      </trkpt>
      <trkpt lat="47.85746" lon="6.83012">
        <ele>570.2</ele>
        <time>2020-08-16T15:09:45Z</time>
      </trkpt>
      <trkpt lat="47.85749" lon="6.83006">
        <ele>570.6</ele>
        <time>2020-08-16T15:09:51Z</time>
      </trkpt>
      <trkpt lat="47.85753" lon="6.83">
        <ele>570.5</ele>
        <time>2020-08-16T15:09:56Z</time>
      </trkpt>
      <trkpt lat="47.85758" lon="6.82996">
        <ele>570.4</ele>
        <time>2020-08-16T15:10:00Z</time>
      </trkpt>
      <trkpt lat="47.85763" lon="6.82994">
        <ele>570.1</ele>
        <time>2020-08-16T15:10:04Z</time>
      </trkpt>
      <trkpt lat="47.85766" lon="6.82989">
        <ele>569.9</ele>
        <time>2020-08-16T15:10:08Z</time>
      </trkpt>
      <trkpt lat="47.85769" lon="6.82983">
        <ele>569.9</ele>
        <time>2020-08-16T15:10:13Z</time>
      </trkpt>
      <trkpt lat="47.85772" lon="6.82976">
        <ele>569.7</ele>
        <time>2020-08-16T15:10:18Z</time>
      </trkpt>
      <trkpt lat="47.85774" lon="6.8297">
        <ele>569.6</ele>
        <time>2020-08-16T15:10:22Z</time>
      </trkpt>
      <trkpt lat="47.85776" lon="6.82964">
        <ele>569.9</ele>
        <time>2020-08-16T15:10:27Z</time>
      </trkpt>
      <trkpt lat="47.85778" lon="6.82958">
        <ele>569.9</ele>
        <time>2020-08-16T15:10:34Z</time>
      </trkpt>
      <trkpt lat="47.85779" lon="6.82951">
        <ele>569.3</ele>
        <time>2020-08-16T15:10:40Z</time>
      </trkpt>
      <trkpt lat="47.85781" lon="6.82943">
        <ele>568.5</ele>
        <time>2020-08-16T15:10:46Z</time>
      </trkpt>
      <trkpt lat="47.85783" lon="6.82937">
        <ele>568.2</ele>
        <time>2020-08-16T15:10:50Z</time>
      </trkpt>
      <trkpt lat="47.85785" lon="6.82931">
        <ele>568</ele>
        <time>2020-08-16T15:10:54Z</time>
      </trkpt>
      <trkpt lat="47.85789" lon="6.82925">
        <ele>567.8</ele>
        <time>2020-08-16T15:10:59Z</time>
      </trkpt>
      <trkpt lat="47.85792" lon="6.82919">
        <ele>567.5</ele>
        <time>2020-08-16T15:11:04Z</time>
      </trkpt>
      <trkpt lat="47.85795" lon="6.82913">
        <ele>567.2</ele>
        <time>2020-08-16T15:11:10Z</time>
      </trkpt>
      <trkpt lat="47.85796" lon="6.82906">
        <ele>567.2</ele>
        <time>2020-08-16T15:11:15Z</time>
      </trkpt>
      <trkpt lat="47.85798" lon="6.829">
        <ele>567.2</ele>
        <time>2020-08-16T15:11:22Z</time>
      </trkpt>
      <trkpt lat="47.85801" lon="6.82894">
        <ele>566.8</ele>
        <time>2020-08-16T15:11:28Z</time>
      </trkpt>
      <trkpt lat="47.85803" lon="6.82887">
        <ele>566.3</ele>
        <time>2020-08-16T15:11:34Z</time>
      </trkpt>
      <trkpt lat="47.85803" lon="6.8288">
        <ele>566</ele>
        <time>2020-08-16T15:11:38Z</time>
      </trkpt>
      <trkpt lat="47.85803" lon="6.82872">
        <ele>565.5</ele>
        <time>2020-08-16T15:11:43Z</time>
      </trkpt>
      <trkpt lat="47.85805" lon="6.82865">
        <ele>565</ele>
        <time>2020-08-16T15:11:48Z</time>
      </trkpt>
      <trkpt lat="47.85809" lon="6.8286">
        <ele>564.8</ele>
        <time>2020-08-16T15:11:53Z</time>
      </trkpt>
      <trkpt lat="47.8581" lon="6.82853">
        <ele>564.2</ele>
        <time>2020-08-16T15:11:59Z</time>
      </trkpt>
      <trkpt lat="47.85813" lon="6.82847">
        <ele>563.8</ele>
        <time>2020-08-16T15:12:04Z</time>
      </trkpt>
      <trkpt lat="47.85817" lon="6.82841">
        <ele>563.5</ele>
        <time>2020-08-16T15:12:08Z</time>
      </trkpt>
      <trkpt lat="47.85819" lon="6.82835">
        <ele>563.1</ele>
        <time>2020-08-16T15:12:13Z</time>
      </trkpt>
      <trkpt lat="47.85821" lon="6.82829">
        <ele>562.5</ele>
        <time>2020-08-16T15:12:19Z</time>
      </trkpt>
      <trkpt lat="47.85822" lon="6.82822">
        <ele>562.1</ele>
        <time>2020-08-16T15:12:24Z</time>
      </trkpt>
      <trkpt lat="47.8582" lon="6.82815">
        <ele>561.6</ele>
        <time>2020-08-16T15:12:29Z</time>
      </trkpt>
      <trkpt lat="47.85819" lon="6.82807">
        <ele>561</ele>
        <time>2020-08-16T15:12:34Z</time>
      </trkpt>
      <trkpt lat="47.85821" lon="6.82801">
        <ele>560.5</ele>
        <time>2020-08-16T15:12:39Z</time>
      </trkpt>
      <trkpt lat="47.85823" lon="6.82794">
        <ele>560</ele>
        <time>2020-08-16T15:12:44Z</time>
      </trkpt>
      <trkpt lat="47.85826" lon="6.82789">
        <ele>559.7</ele>
        <time>2020-08-16T15:12:48Z</time>
      </trkpt>
      <trkpt lat="47.85829" lon="6.82783">
        <ele>559.3</ele>
        <time>2020-08-16T15:12:53Z</time>
      </trkpt>
      <trkpt lat="47.85833" lon="6.82777">
        <ele>558.9</ele>
        <time>2020-08-16T15:12:58Z</time>
      </trkpt>
      <trkpt lat="47.85838" lon="6.82774">
        <ele>558.7</ele>
        <time>2020-08-16T15:13:02Z</time>
      </trkpt>
      <trkpt lat="47.85842" lon="6.8277">
        <ele>558.4</ele>
        <time>2020-08-16T15:13:07Z</time>
      </trkpt>
      <trkpt lat="47.85845" lon="6.82764">
        <ele>557.6</ele>
        <time>2020-08-16T15:13:15Z</time>
      </trkpt>
      <trkpt lat="47.85847" lon="6.82758">
        <ele>556.9</ele>
        <time>2020-08-16T15:13:20Z</time>
      </trkpt>
      <trkpt lat="47.85849" lon="6.8275">
        <ele>556.2</ele>
        <time>2020-08-16T15:13:26Z</time>
      </trkpt>
      <trkpt lat="47.85849" lon="6.82742">
        <ele>555.8</ele>
        <time>2020-08-16T15:13:29Z</time>
      </trkpt>
      <trkpt lat="47.85849" lon="6.82734">
        <ele>555.3</ele>
        <time>2020-08-16T15:13:33Z</time>
      </trkpt>
      <trkpt lat="47.85849" lon="6.82726">
        <ele>554.7</ele>
        <time>2020-08-16T15:13:37Z</time>
      </trkpt>
      <trkpt lat="47.85849" lon="6.82719">
        <ele>554.2</ele>
        <time>2020-08-16T15:13:41Z</time>
      </trkpt>
      <trkpt lat="47.85852" lon="6.82713">
        <ele>553.7</ele>
        <time>2020-08-16T15:13:45Z</time>
      </trkpt>
      <trkpt lat="47.85852" lon="6.82706">
        <ele>552.9</ele>
        <time>2020-08-16T15:13:50Z</time>
      </trkpt>
      <trkpt lat="47.85854" lon="6.82699">
        <ele>552.3</ele>
        <time>2020-08-16T15:13:55Z</time>
      </trkpt>
      <trkpt lat="47.85859" lon="6.82695">
        <ele>551.9</ele>
        <time>2020-08-16T15:13:59Z</time>
      </trkpt>
      <trkpt lat="47.85864" lon="6.82693">
        <ele>551.6</ele>
        <time>2020-08-16T15:14:03Z</time>
      </trkpt>
      <trkpt lat="47.85866" lon="6.82686">
        <ele>550.9</ele>
        <time>2020-08-16T15:14:09Z</time>
      </trkpt>
      <trkpt lat="47.85869" lon="6.8268">
        <ele>550.4</ele>
        <time>2020-08-16T15:14:14Z</time>
      </trkpt>
      <trkpt lat="47.85871" lon="6.82674">
        <ele>549.9</ele>
        <time>2020-08-16T15:14:19Z</time>
      </trkpt>
      <trkpt lat="47.8587" lon="6.82666">
        <ele>549.4</ele>
        <time>2020-08-16T15:14:23Z</time>
      </trkpt>
      <trkpt lat="47.8587" lon="6.82658">
        <ele>548.8</ele>
        <time>2020-08-16T15:14:27Z</time>
      </trkpt>
      <trkpt lat="47.8587" lon="6.82651">
        <ele>547.5</ele>
        <time>2020-08-16T15:14:33Z</time>
      </trkpt>
      <trkpt lat="47.85871" lon="6.82644">
        <ele>546.4</ele>
        <time>2020-08-16T15:14:39Z</time>
      </trkpt>
      <trkpt lat="47.85871" lon="6.82637">
        <ele>545.3</ele>
        <time>2020-08-16T15:14:46Z</time>
      </trkpt>
      <trkpt lat="47.85874" lon="6.82633">
        <ele>544.4</ele>
        <time>2020-08-16T15:14:50Z</time>
      </trkpt>
      <trkpt lat="47.85877" lon="6.82627">
        <ele>543.7</ele>
        <time>2020-08-16T15:14:55Z</time>
      </trkpt>
      <trkpt lat="47.85878" lon="6.8262">
        <ele>542.8</ele>
        <time>2020-08-16T15:15:01Z</time>
      </trkpt>
      <trkpt lat="47.85876" lon="6.82612">
        <ele>541.9</ele>
        <time>2020-08-16T15:15:07Z</time>
      </trkpt>
      <trkpt lat="47.85874" lon="6.82605">
        <ele>541.2</ele>
        <time>2020-08-16T15:15:12Z</time>
      </trkpt>
      <trkpt lat="47.85874" lon="6.82597">
        <ele>540.7</ele>
        <time>2020-08-16T15:15:16Z</time>
      </trkpt>
      <trkpt lat="47.85875" lon="6.8259">
        <ele>540.2</ele>
        <time>2020-08-16T15:15:21Z</time>
      </trkpt>
      <trkpt lat="47.85877" lon="6.82583">
        <ele>539.6</ele>
        <time>2020-08-16T15:15:26Z</time>
      </trkpt>
      <trkpt lat="47.85881" lon="6.82578">
        <ele>539.5</ele>
        <time>2020-08-16T15:15:29Z</time>
      </trkpt>
      <trkpt lat="47.85885" lon="6.82573">
        <ele>539.5</ele>
        <time>2020-08-16T15:15:32Z</time>
      </trkpt>
      <trkpt lat="47.85887" lon="6.82566">
        <ele>539.6</ele>
        <time>2020-08-16T15:15:38Z</time>
      </trkpt>
      <trkpt lat="47.85889" lon="6.82559">
        <ele>539.7</ele>
        <time>2020-08-16T15:15:42Z</time>
      </trkpt>
      <trkpt lat="47.85887" lon="6.82552">
        <ele>539.7</ele>
        <time>2020-08-16T15:15:46Z</time>
      </trkpt>
      <trkpt lat="47.85886" lon="6.82546">
        <ele>539.6</ele>
        <time>2020-08-16T15:15:49Z</time>
      </trkpt>
      <trkpt lat="47.85884" lon="6.82538">
        <ele>539.3</ele>
        <time>2020-08-16T15:15:53Z</time>
      </trkpt>
      <trkpt lat="47.85882" lon="6.8253">
        <ele>538.9</ele>
        <time>2020-08-16T15:15:57Z</time>
      </trkpt>
      <trkpt lat="47.85882" lon="6.82524">
        <ele>538.1</ele>
        <time>2020-08-16T15:16:02Z</time>
      </trkpt>
      <trkpt lat="47.85887" lon="6.82519">
        <ele>537.6</ele>
        <time>2020-08-16T15:16:06Z</time>
      </trkpt>
      <trkpt lat="47.85891" lon="6.82514">
        <ele>536.8</ele>
        <time>2020-08-16T15:16:12Z</time>
      </trkpt>
      <trkpt lat="47.85887" lon="6.8251">
        <ele>535.9</ele>
        <time>2020-08-16T15:16:22Z</time>
      </trkpt>
      <trkpt lat="47.85882" lon="6.82507">
        <ele>535.5</ele>
        <time>2020-08-16T15:16:33Z</time>
      </trkpt>
      <trkpt lat="47.85882" lon="6.82501">
        <ele>535.1</ele>
        <time>2020-08-16T15:16:40Z</time>
      </trkpt>
      <trkpt lat="47.85886" lon="6.82498">
        <ele>535.2</ele>
        <time>2020-08-16T15:16:46Z</time>
      </trkpt>
      <trkpt lat="47.85888" lon="6.82492">
        <ele>535.3</ele>
        <time>2020-08-16T15:16:51Z</time>
      </trkpt>
      <trkpt lat="47.85891" lon="6.82485">
        <ele>535.5</ele>
        <time>2020-08-16T15:16:56Z</time>
      </trkpt>
      <trkpt lat="47.85894" lon="6.82478">
        <ele>535.9</ele>
        <time>2020-08-16T15:17:00Z</time>
      </trkpt>
      <trkpt lat="47.85896" lon="6.8247">
        <ele>536.4</ele>
        <time>2020-08-16T15:17:04Z</time>
      </trkpt>
      <trkpt lat="47.85898" lon="6.82464">
        <ele>536.9</ele>
        <time>2020-08-16T15:17:08Z</time>
      </trkpt>
      <trkpt lat="47.85899" lon="6.82456">
        <ele>537.5</ele>
        <time>2020-08-16T15:17:13Z</time>
      </trkpt>
      <trkpt lat="47.859" lon="6.82449">
        <ele>538</ele>
        <time>2020-08-16T15:17:17Z</time>
      </trkpt>
      <trkpt lat="47.85902" lon="6.82442">
        <ele>538.6</ele>
        <time>2020-08-16T15:17:21Z</time>
      </trkpt>
      <trkpt lat="47.85903" lon="6.82435">
        <ele>539.1</ele>
        <time>2020-08-16T15:17:26Z</time>
      </trkpt>
      <trkpt lat="47.85904" lon="6.82428">
        <ele>539.4</ele>
        <time>2020-08-16T15:17:31Z</time>
      </trkpt>
      <trkpt lat="47.85906" lon="6.8242">
        <ele>539.9</ele>
        <time>2020-08-16T15:17:37Z</time>
      </trkpt>
      <trkpt lat="47.85908" lon="6.82414">
        <ele>540.2</ele>
        <time>2020-08-16T15:17:42Z</time>
      </trkpt>
      <trkpt lat="47.85912" lon="6.82413">
        <ele>541.1</ele>
        <time>2020-08-16T15:17:52Z</time>
      </trkpt>
      <trkpt lat="47.85917" lon="6.82414">
        <ele>541.5</ele>
        <time>2020-08-16T15:17:57Z</time>
      </trkpt>
      <trkpt lat="47.8592" lon="6.82409">
        <ele>540.9</ele>
        <time>2020-08-16T15:18:16Z</time>
      </trkpt>
      <trkpt lat="47.85917" lon="6.82403">
        <ele>540.1</ele>
        <time>2020-08-16T15:18:24Z</time>
      </trkpt>
      <trkpt lat="47.8592" lon="6.82396">
        <ele>539.5</ele>
        <time>2020-08-16T15:18:30Z</time>
      </trkpt>
      <trkpt lat="47.85919" lon="6.82389">
        <ele>539.1</ele>
        <time>2020-08-16T15:18:34Z</time>
      </trkpt>
      <trkpt lat="47.8592" lon="6.82382">
        <ele>538.8</ele>
        <time>2020-08-16T15:18:38Z</time>
      </trkpt>
      <trkpt lat="47.85923" lon="6.82376">
        <ele>538.5</ele>
        <time>2020-08-16T15:18:42Z</time>
      </trkpt>
      <trkpt lat="47.85928" lon="6.8237">
        <ele>538.4</ele>
        <time>2020-08-16T15:18:46Z</time>
      </trkpt>
      <trkpt lat="47.85933" lon="6.82368">
        <ele>538.3</ele>
        <time>2020-08-16T15:18:49Z</time>
      </trkpt>
      <trkpt lat="47.8594" lon="6.82366">
        <ele>538.3</ele>
        <time>2020-08-16T15:18:52Z</time>
      </trkpt>
      <trkpt lat="47.85943" lon="6.82361">
        <ele>538.2</ele>
        <time>2020-08-16T15:18:56Z</time>
      </trkpt>
      <trkpt lat="47.85946" lon="6.82355">
        <ele>538.1</ele>
        <time>2020-08-16T15:19:00Z</time>
      </trkpt>
      <trkpt lat="47.85947" lon="6.82348">
        <ele>537.4</ele>
        <time>2020-08-16T15:19:06Z</time>
      </trkpt>
      <trkpt lat="47.85948" lon="6.82341">
        <ele>536.5</ele>
        <time>2020-08-16T15:19:13Z</time>
      </trkpt>
      <trkpt lat="47.8595" lon="6.82333">
        <ele>535.8</ele>
        <time>2020-08-16T15:19:19Z</time>
      </trkpt>
      <trkpt lat="47.85953" lon="6.82326">
        <ele>535.4</ele>
        <time>2020-08-16T15:19:24Z</time>
      </trkpt>
      <trkpt lat="47.85956" lon="6.82321">
        <ele>535.2</ele>
        <time>2020-08-16T15:19:28Z</time>
      </trkpt>
      <trkpt lat="47.8596" lon="6.82315">
        <ele>535</ele>
        <time>2020-08-16T15:19:33Z</time>
      </trkpt>
      <trkpt lat="47.85964" lon="6.82309">
        <ele>534.7</ele>
        <time>2020-08-16T15:19:38Z</time>
      </trkpt>
      <trkpt lat="47.85966" lon="6.82302">
        <ele>534.6</ele>
        <time>2020-08-16T15:19:43Z</time>
      </trkpt>
      <trkpt lat="47.85966" lon="6.82295">
        <ele>534.8</ele>
        <time>2020-08-16T15:19:48Z</time>
      </trkpt>
      <trkpt lat="47.8597" lon="6.8229">
        <ele>537.5</ele>
        <time>2020-08-16T15:20:14Z</time>
      </trkpt>
      <trkpt lat="47.8597" lon="6.82283">
        <ele>538.5</ele>
        <time>2020-08-16T15:20:35Z</time>
      </trkpt>
      <trkpt lat="47.85967" lon="6.82277">
        <ele>538.3</ele>
        <time>2020-08-16T15:20:41Z</time>
      </trkpt>
      <trkpt lat="47.85964" lon="6.8227">
        <ele>538</ele>
        <time>2020-08-16T15:20:46Z</time>
      </trkpt>
      <trkpt lat="47.8596" lon="6.82267">
        <ele>537.6</ele>
        <time>2020-08-16T15:20:58Z</time>
      </trkpt>
      <trkpt lat="47.85957" lon="6.82263">
        <ele>537.3</ele>
        <time>2020-08-16T15:21:06Z</time>
      </trkpt>
      <trkpt lat="47.85953" lon="6.82258">
        <ele>537.3</ele>
        <time>2020-08-16T15:21:11Z</time>
      </trkpt>
      <trkpt lat="47.85949" lon="6.82254">
        <ele>537.2</ele>
        <time>2020-08-16T15:21:16Z</time>
      </trkpt>
      <trkpt lat="47.85945" lon="6.82251">
        <ele>537.3</ele>
        <time>2020-08-16T15:21:21Z</time>
      </trkpt>
      <trkpt lat="47.85941" lon="6.82246">
        <ele>537.4</ele>
        <time>2020-08-16T15:21:27Z</time>
      </trkpt>
      <trkpt lat="47.85937" lon="6.8224">
        <ele>537.5</ele>
        <time>2020-08-16T15:21:33Z</time>
      </trkpt>
      <trkpt lat="47.85934" lon="6.82235">
        <ele>537.7</ele>
        <time>2020-08-16T15:21:40Z</time>
      </trkpt>
      <trkpt lat="47.85931" lon="6.82231">
        <ele>538.3</ele>
        <time>2020-08-16T15:21:51Z</time>
      </trkpt>
      <trkpt lat="47.85926" lon="6.82228">
        <ele>539.4</ele>
        <time>2020-08-16T15:22:00Z</time>
      </trkpt>
      <trkpt lat="47.85922" lon="6.82226">
        <ele>540</ele>
        <time>2020-08-16T15:22:04Z</time>
      </trkpt>
      <trkpt lat="47.85919" lon="6.8222">
        <ele>540.7</ele>
        <time>2020-08-16T15:22:13Z</time>
      </trkpt>
      <trkpt lat="47.85916" lon="6.82214">
        <ele>540.8</ele>
        <time>2020-08-16T15:22:21Z</time>
      </trkpt>
      <trkpt lat="47.85911" lon="6.82212">
        <ele>540.8</ele>
        <time>2020-08-16T15:22:35Z</time>
      </trkpt>
      <trkpt lat="47.85907" lon="6.82211">
        <ele>541.1</ele>
        <time>2020-08-16T15:22:45Z</time>
      </trkpt>
      <trkpt lat="47.85903" lon="6.82207">
        <ele>541.5</ele>
        <time>2020-08-16T15:22:51Z</time>
      </trkpt>
      <trkpt lat="47.859" lon="6.82202">
        <ele>541.8</ele>
        <time>2020-08-16T15:22:58Z</time>
      </trkpt>
      <trkpt lat="47.85896" lon="6.82196">
        <ele>541.9</ele>
        <time>2020-08-16T15:23:03Z</time>
      </trkpt>
      <trkpt lat="47.85893" lon="6.82191">
        <ele>541.9</ele>
        <time>2020-08-16T15:23:07Z</time>
      </trkpt>
      <trkpt lat="47.85888" lon="6.82186">
        <ele>542.1</ele>
        <time>2020-08-16T15:23:12Z</time>
      </trkpt>
      <trkpt lat="47.85885" lon="6.8218">
        <ele>542.5</ele>
        <time>2020-08-16T15:23:17Z</time>
      </trkpt>
      <trkpt lat="47.85882" lon="6.82176">
        <ele>543.1</ele>
        <time>2020-08-16T15:23:25Z</time>
      </trkpt>
      <trkpt lat="47.85878" lon="6.82172">
        <ele>543.7</ele>
        <time>2020-08-16T15:23:32Z</time>
      </trkpt>
      <trkpt lat="47.85873" lon="6.82174">
        <ele>543.8</ele>
        <time>2020-08-16T15:23:42Z</time>
      </trkpt>
      <trkpt lat="47.85869" lon="6.82174">
        <ele>544.1</ele>
        <time>2020-08-16T15:23:50Z</time>
      </trkpt>
      <trkpt lat="47.85865" lon="6.82169">
        <ele>544.5</ele>
        <time>2020-08-16T15:23:55Z</time>
      </trkpt>
      <trkpt lat="47.85862" lon="6.82162">
        <ele>544.8</ele>
        <time>2020-08-16T15:24:00Z</time>
      </trkpt>
      <trkpt lat="47.85859" lon="6.82156">
        <ele>545.3</ele>
        <time>2020-08-16T15:24:07Z</time>
      </trkpt>
      <trkpt lat="47.85856" lon="6.82151">
        <ele>545.6</ele>
        <time>2020-08-16T15:24:13Z</time>
      </trkpt>
      <trkpt lat="47.85852" lon="6.82148">
        <ele>545.7</ele>
        <time>2020-08-16T15:24:19Z</time>
      </trkpt>
      <trkpt lat="47.85847" lon="6.82143">
        <ele>545.8</ele>
        <time>2020-08-16T15:24:26Z</time>
      </trkpt>
      <trkpt lat="47.85843" lon="6.82139">
        <ele>545.8</ele>
        <time>2020-08-16T15:24:30Z</time>
      </trkpt>
      <trkpt lat="47.85839" lon="6.82135">
        <ele>545.4</ele>
        <time>2020-08-16T15:24:35Z</time>
      </trkpt>
      <trkpt lat="47.85836" lon="6.8213">
        <ele>544.8</ele>
        <time>2020-08-16T15:24:40Z</time>
      </trkpt>
      <trkpt lat="47.85833" lon="6.82124">
        <ele>544.4</ele>
        <time>2020-08-16T15:24:44Z</time>
      </trkpt>
      <trkpt lat="47.8583" lon="6.82118">
        <ele>544.2</ele>
        <time>2020-08-16T15:24:48Z</time>
      </trkpt>
      <trkpt lat="47.85826" lon="6.82115">
        <ele>544</ele>
        <time>2020-08-16T15:24:52Z</time>
      </trkpt>
      <trkpt lat="47.85822" lon="6.8211">
        <ele>543.9</ele>
        <time>2020-08-16T15:24:56Z</time>
      </trkpt>
      <trkpt lat="47.85818" lon="6.82105">
        <ele>543.8</ele>
        <time>2020-08-16T15:25:01Z</time>
      </trkpt>
      <trkpt lat="47.85814" lon="6.82102">
        <ele>543.8</ele>
        <time>2020-08-16T15:25:05Z</time>
      </trkpt>
      <trkpt lat="47.85809" lon="6.82098">
        <ele>543.8</ele>
        <time>2020-08-16T15:25:10Z</time>
      </trkpt>
      <trkpt lat="47.85804" lon="6.82094">
        <ele>543.8</ele>
        <time>2020-08-16T15:25:15Z</time>
      </trkpt>
      <trkpt lat="47.858" lon="6.82091">
        <ele>543.8</ele>
        <time>2020-08-16T15:25:20Z</time>
      </trkpt>
      <trkpt lat="47.85795" lon="6.82088">
        <ele>543.8</ele>
        <time>2020-08-16T15:25:25Z</time>
      </trkpt>
      <trkpt lat="47.85791" lon="6.82083">
        <ele>543.6</ele>
        <time>2020-08-16T15:25:30Z</time>
      </trkpt>
      <trkpt lat="47.85788" lon="6.82077">
        <ele>543.4</ele>
        <time>2020-08-16T15:25:35Z</time>
      </trkpt>
      <trkpt lat="47.85783" lon="6.82077">
        <ele>543</ele>
        <time>2020-08-16T15:25:48Z</time>
      </trkpt>
      <trkpt lat="47.85782" lon="6.82071">
        <ele>543</ele>
        <time>2020-08-16T15:25:57Z</time>
      </trkpt>
      <trkpt lat="47.85779" lon="6.82064">
        <ele>543.4</ele>
        <time>2020-08-16T15:26:47Z</time>
      </trkpt>
      <trkpt lat="47.85775" lon="6.82061">
        <ele>543.6</ele>
        <time>2020-08-16T15:26:50Z</time>
      </trkpt>
      <trkpt lat="47.8577" lon="6.82058">
        <ele>543.6</ele>
        <time>2020-08-16T15:26:54Z</time>
      </trkpt>
      <trkpt lat="47.85765" lon="6.82058">
        <ele>543.6</ele>
        <time>2020-08-16T15:26:59Z</time>
      </trkpt>
      <trkpt lat="47.8576" lon="6.82059">
        <ele>543.4</ele>
        <time>2020-08-16T15:27:04Z</time>
      </trkpt>
      <trkpt lat="47.85755" lon="6.82058">
        <ele>543.2</ele>
        <time>2020-08-16T15:27:09Z</time>
      </trkpt>
      <trkpt lat="47.85756" lon="6.82052">
        <ele>542.8</ele>
        <time>2020-08-16T15:27:22Z</time>
      </trkpt>
      <trkpt lat="47.85756" lon="6.82044">
        <ele>543</ele>
        <time>2020-08-16T15:27:27Z</time>
      </trkpt>
      <trkpt lat="47.85752" lon="6.82037">
        <ele>543.2</ele>
        <time>2020-08-16T15:27:32Z</time>
      </trkpt>
      <trkpt lat="47.85748" lon="6.82034">
        <ele>543.4</ele>
        <time>2020-08-16T15:27:36Z</time>
      </trkpt>
      <trkpt lat="47.85743" lon="6.82038">
        <ele>543.5</ele>
        <time>2020-08-16T15:27:41Z</time>
      </trkpt>
      <trkpt lat="47.85747" lon="6.82042">
        <ele>543.8</ele>
        <time>2020-08-16T15:27:51Z</time>
      </trkpt>
      <trkpt lat="47.85745" lon="6.82035">
        <ele>543.9</ele>
        <time>2020-08-16T15:28:03Z</time>
      </trkpt>
      <trkpt lat="47.85744" lon="6.82028">
        <ele>544.1</ele>
        <time>2020-08-16T15:28:11Z</time>
      </trkpt>
      <trkpt lat="47.85741" lon="6.82022">
        <ele>544.5</ele>
        <time>2020-08-16T15:28:20Z</time>
      </trkpt>
      <trkpt lat="47.85737" lon="6.8202">
        <ele>544.6</ele>
        <time>2020-08-16T15:28:26Z</time>
      </trkpt>
      <trkpt lat="47.85734" lon="6.82014">
        <ele>545</ele>
        <time>2020-08-16T15:28:33Z</time>
      </trkpt>
      <trkpt lat="47.85731" lon="6.82008">
        <ele>545.6</ele>
        <time>2020-08-16T15:28:40Z</time>
      </trkpt>
      <trkpt lat="47.85727" lon="6.82004">
        <ele>546.1</ele>
        <time>2020-08-16T15:28:47Z</time>
      </trkpt>
      <trkpt lat="47.85722" lon="6.82001">
        <ele>547</ele>
        <time>2020-08-16T15:28:55Z</time>
      </trkpt>
      <trkpt lat="47.85718" lon="6.81997">
        <ele>547.2</ele>
        <time>2020-08-16T15:29:01Z</time>
      </trkpt>
      <trkpt lat="47.85714" lon="6.81996">
        <ele>547.2</ele>
        <time>2020-08-16T15:29:07Z</time>
      </trkpt>
      <trkpt lat="47.85709" lon="6.81992">
        <ele>547.3</ele>
        <time>2020-08-16T15:29:12Z</time>
      </trkpt>
      <trkpt lat="47.85705" lon="6.81988">
        <ele>547.4</ele>
        <time>2020-08-16T15:29:17Z</time>
      </trkpt>
      <trkpt lat="47.85701" lon="6.81984">
        <ele>547.5</ele>
        <time>2020-08-16T15:29:22Z</time>
      </trkpt>
      <trkpt lat="47.85697" lon="6.8198">
        <ele>547.7</ele>
        <time>2020-08-16T15:29:27Z</time>
      </trkpt>
      <trkpt lat="47.85693" lon="6.81977">
        <ele>548</ele>
        <time>2020-08-16T15:29:32Z</time>
      </trkpt>
      <trkpt lat="47.85688" lon="6.81976">
        <ele>547.8</ele>
        <time>2020-08-16T15:29:42Z</time>
      </trkpt>
      <trkpt lat="47.85685" lon="6.8197">
        <ele>547.7</ele>
        <time>2020-08-16T15:29:51Z</time>
      </trkpt>
      <trkpt lat="47.8568" lon="6.81966">
        <ele>547.7</ele>
        <time>2020-08-16T15:29:58Z</time>
      </trkpt>
      <trkpt lat="47.85676" lon="6.81963">
        <ele>547.7</ele>
        <time>2020-08-16T15:30:03Z</time>
      </trkpt>
      <trkpt lat="47.85672" lon="6.81959">
        <ele>547.8</ele>
        <time>2020-08-16T15:30:08Z</time>
      </trkpt>
      <trkpt lat="47.85667" lon="6.81956">
        <ele>548.1</ele>
        <time>2020-08-16T15:30:15Z</time>
      </trkpt>
      <trkpt lat="47.85667" lon="6.81963">
        <ele>548.8</ele>
        <time>2020-08-16T15:30:29Z</time>
      </trkpt>
      <trkpt lat="47.85663" lon="6.8196">
        <ele>548.6</ele>
        <time>2020-08-16T15:30:47Z</time>
      </trkpt>
      <trkpt lat="47.85658" lon="6.81961">
        <ele>547.5</ele>
        <time>2020-08-16T15:31:24Z</time>
      </trkpt>
      <trkpt lat="47.85655" lon="6.81955">
        <ele>547.3</ele>
        <time>2020-08-16T15:31:32Z</time>
      </trkpt>
      <trkpt lat="47.85652" lon="6.8195">
        <ele>547.1</ele>
        <time>2020-08-16T15:31:37Z</time>
      </trkpt>
      <trkpt lat="47.85649" lon="6.81944">
        <ele>545.6</ele>
        <time>2020-08-16T15:32:24Z</time>
      </trkpt>
      <trkpt lat="47.85645" lon="6.8194">
        <ele>545.3</ele>
        <time>2020-08-16T15:32:31Z</time>
      </trkpt>
      <trkpt lat="47.85641" lon="6.81935">
        <ele>544.4</ele>
        <time>2020-08-16T15:32:48Z</time>
      </trkpt>
      <trkpt lat="47.85637" lon="6.81932">
        <ele>543.9</ele>
        <time>2020-08-16T15:32:54Z</time>
      </trkpt>
      <trkpt lat="47.85632" lon="6.81929">
        <ele>543.4</ele>
        <time>2020-08-16T15:32:59Z</time>
      </trkpt>
      <trkpt lat="47.85627" lon="6.81927">
        <ele>542.9</ele>
        <time>2020-08-16T15:33:04Z</time>
      </trkpt>
      <trkpt lat="47.85622" lon="6.81925">
        <ele>542.4</ele>
        <time>2020-08-16T15:33:11Z</time>
      </trkpt>
      <trkpt lat="47.85618" lon="6.81923">
        <ele>542.1</ele>
        <time>2020-08-16T15:33:16Z</time>
      </trkpt>
      <trkpt lat="47.85613" lon="6.81921">
        <ele>541.7</ele>
        <time>2020-08-16T15:33:23Z</time>
      </trkpt>
      <trkpt lat="47.8561" lon="6.81916">
        <ele>541.5</ele>
        <time>2020-08-16T15:33:29Z</time>
      </trkpt>
      <trkpt lat="47.85605" lon="6.81916">
        <ele>541.5</ele>
        <time>2020-08-16T15:33:40Z</time>
      </trkpt>
      <trkpt lat="47.85601" lon="6.81912">
        <ele>540.6</ele>
        <time>2020-08-16T15:34:03Z</time>
      </trkpt>
      <trkpt lat="47.85596" lon="6.81909">
        <ele>540.3</ele>
        <time>2020-08-16T15:34:10Z</time>
      </trkpt>
      <trkpt lat="47.85592" lon="6.81909">
        <ele>540.2</ele>
        <time>2020-08-16T15:34:23Z</time>
      </trkpt>
      <trkpt lat="47.85587" lon="6.81903">
        <ele>540.6</ele>
        <time>2020-08-16T15:34:49Z</time>
      </trkpt>
      <trkpt lat="47.85583" lon="6.819">
        <ele>541.3</ele>
        <time>2020-08-16T15:34:56Z</time>
      </trkpt>
      <trkpt lat="47.8558" lon="6.81905">
        <ele>541.8</ele>
        <time>2020-08-16T15:35:03Z</time>
      </trkpt>
      <trkpt lat="47.85583" lon="6.8191">
        <ele>542.7</ele>
        <time>2020-08-16T15:35:11Z</time>
      </trkpt>
      <trkpt lat="47.85588" lon="6.81909">
        <ele>543.9</ele>
        <time>2020-08-16T15:35:20Z</time>
      </trkpt>
      <trkpt lat="47.85585" lon="6.81903">
        <ele>545.3</ele>
        <time>2020-08-16T15:35:48Z</time>
      </trkpt>
      <trkpt lat="47.85581" lon="6.81899">
        <ele>545.1</ele>
        <time>2020-08-16T15:35:54Z</time>
      </trkpt>
      <trkpt lat="47.85576" lon="6.81898">
        <ele>545.2</ele>
        <time>2020-08-16T15:36:02Z</time>
      </trkpt>
      <trkpt lat="47.85576" lon="6.8189">
        <ele>545.9</ele>
        <time>2020-08-16T15:37:14Z</time>
      </trkpt>
      <trkpt lat="47.85572" lon="6.81886">
        <ele>545.5</ele>
        <time>2020-08-16T15:37:20Z</time>
      </trkpt>
      <trkpt lat="47.85567" lon="6.81884">
        <ele>545.4</ele>
        <time>2020-08-16T15:37:52Z</time>
      </trkpt>
      <trkpt lat="47.85563" lon="6.81882">
        <ele>546.1</ele>
        <time>2020-08-16T15:37:57Z</time>
      </trkpt>
      <trkpt lat="47.85558" lon="6.8188">
        <ele>546.7</ele>
        <time>2020-08-16T15:38:02Z</time>
      </trkpt>
      <trkpt lat="47.85553" lon="6.81877">
        <ele>547.8</ele>
        <time>2020-08-16T15:38:10Z</time>
      </trkpt>
      <trkpt lat="47.85548" lon="6.81877">
        <ele>548.8</ele>
        <time>2020-08-16T15:38:19Z</time>
      </trkpt>
      <trkpt lat="47.85546" lon="6.81871">
        <ele>549.9</ele>
        <time>2020-08-16T15:38:31Z</time>
      </trkpt>
      <trkpt lat="47.85544" lon="6.81865">
        <ele>550.8</ele>
        <time>2020-08-16T15:38:46Z</time>
      </trkpt>
      <trkpt lat="47.85539" lon="6.81862">
        <ele>551.2</ele>
        <time>2020-08-16T15:39:08Z</time>
      </trkpt>
      <trkpt lat="47.85534" lon="6.8186">
        <ele>550.8</ele>
        <time>2020-08-16T15:39:15Z</time>
      </trkpt>
      <trkpt lat="47.85529" lon="6.81861">
        <ele>549.9</ele>
        <time>2020-08-16T15:39:48Z</time>
      </trkpt>
      <trkpt lat="47.85524" lon="6.81859">
        <ele>550</ele>
        <time>2020-08-16T15:39:54Z</time>
      </trkpt>
      <trkpt lat="47.85522" lon="6.81852">
        <ele>550</ele>
        <time>2020-08-16T15:40:05Z</time>
      </trkpt>
      <trkpt lat="47.85518" lon="6.81848">
        <ele>549.9</ele>
        <time>2020-08-16T15:40:10Z</time>
      </trkpt>
      <trkpt lat="47.85513" lon="6.81843">
        <ele>549.7</ele>
        <time>2020-08-16T15:40:15Z</time>
      </trkpt>
      <trkpt lat="47.85509" lon="6.81838">
        <ele>549.2</ele>
        <time>2020-08-16T15:40:20Z</time>
      </trkpt>
      <trkpt lat="47.85505" lon="6.81835">
        <ele>548.3</ele>
        <time>2020-08-16T15:40:29Z</time>
      </trkpt>
      <trkpt lat="47.855" lon="6.81831">
        <ele>548.1</ele>
        <time>2020-08-16T15:40:35Z</time>
      </trkpt>
      <trkpt lat="47.85496" lon="6.81827">
        <ele>548.1</ele>
        <time>2020-08-16T15:40:44Z</time>
      </trkpt>
      <trkpt lat="47.85492" lon="6.81822">
        <ele>548</ele>
        <time>2020-08-16T15:40:49Z</time>
      </trkpt>
      <trkpt lat="47.85489" lon="6.81816">
        <ele>547.5</ele>
        <time>2020-08-16T15:40:55Z</time>
      </trkpt>
      <trkpt lat="47.85486" lon="6.8181">
        <ele>547</ele>
        <time>2020-08-16T15:41:01Z</time>
      </trkpt>
      <trkpt lat="47.85483" lon="6.81805">
        <ele>546.7</ele>
        <time>2020-08-16T15:41:06Z</time>
      </trkpt>
      <trkpt lat="47.8548" lon="6.81799">
        <ele>546.3</ele>
        <time>2020-08-16T15:41:12Z</time>
      </trkpt>
      <trkpt lat="47.85476" lon="6.81794">
        <ele>546</ele>
        <time>2020-08-16T15:41:17Z</time>
      </trkpt>
      <trkpt lat="47.85472" lon="6.81789">
        <ele>545.8</ele>
        <time>2020-08-16T15:41:22Z</time>
      </trkpt>
      <trkpt lat="47.85468" lon="6.81784">
        <ele>545.7</ele>
        <time>2020-08-16T15:41:27Z</time>
      </trkpt>
      <trkpt lat="47.85465" lon="6.81779">
        <ele>545.4</ele>
        <time>2020-08-16T15:41:32Z</time>
      </trkpt>
      <trkpt lat="47.85461" lon="6.81773">
        <ele>545.2</ele>
        <time>2020-08-16T15:41:37Z</time>
      </trkpt>
      <trkpt lat="47.85458" lon="6.81767">
        <ele>545</ele>
        <time>2020-08-16T15:41:42Z</time>
      </trkpt>
      <trkpt lat="47.85454" lon="6.81761">
        <ele>544.7</ele>
        <time>2020-08-16T15:41:47Z</time>
      </trkpt>
      <trkpt lat="47.85451" lon="6.81756">
        <ele>544.5</ele>
        <time>2020-08-16T15:41:51Z</time>
      </trkpt>
      <trkpt lat="47.85448" lon="6.81751">
        <ele>544.1</ele>
        <time>2020-08-16T15:41:56Z</time>
      </trkpt>
      <trkpt lat="47.85445" lon="6.81744">
        <ele>543.7</ele>
        <time>2020-08-16T15:42:01Z</time>
      </trkpt>
      <trkpt lat="47.85442" lon="6.81738">
        <ele>543.5</ele>
        <time>2020-08-16T15:42:06Z</time>
      </trkpt>
      <trkpt lat="47.85439" lon="6.81731">
        <ele>543.5</ele>
        <time>2020-08-16T15:42:11Z</time>
      </trkpt>
      <trkpt lat="47.85437" lon="6.81724">
        <ele>543.5</ele>
        <time>2020-08-16T15:42:15Z</time>
      </trkpt>
      <trkpt lat="47.85435" lon="6.81718">
        <ele>543.5</ele>
        <time>2020-08-16T15:42:19Z</time>
      </trkpt>
      <trkpt lat="47.85433" lon="6.81712">
        <ele>543.3</ele>
        <time>2020-08-16T15:42:24Z</time>
      </trkpt>
      <trkpt lat="47.85431" lon="6.81705">
        <ele>543.1</ele>
        <time>2020-08-16T15:42:30Z</time>
      </trkpt>
      <trkpt lat="47.85429" lon="6.81698">
        <ele>543.2</ele>
        <time>2020-08-16T15:42:34Z</time>
      </trkpt>
      <trkpt lat="47.85428" lon="6.81691">
        <ele>543.3</ele>
        <time>2020-08-16T15:42:38Z</time>
      </trkpt>
      <trkpt lat="47.85426" lon="6.81685">
        <ele>543.2</ele>
        <time>2020-08-16T15:42:42Z</time>
      </trkpt>
      <trkpt lat="47.85423" lon="6.81678">
        <ele>543.2</ele>
        <time>2020-08-16T15:42:48Z</time>
      </trkpt>
      <trkpt lat="47.85422" lon="6.81671">
        <ele>543.3</ele>
        <time>2020-08-16T15:42:53Z</time>
      </trkpt>
      <trkpt lat="47.85419" lon="6.81664">
        <ele>543.3</ele>
        <time>2020-08-16T15:42:58Z</time>
      </trkpt>
      <trkpt lat="47.85418" lon="6.81658">
        <ele>543.3</ele>
        <time>2020-08-16T15:43:03Z</time>
      </trkpt>
      <trkpt lat="47.85417" lon="6.8165">
        <ele>543.2</ele>
        <time>2020-08-16T15:43:08Z</time>
      </trkpt>
      <trkpt lat="47.85416" lon="6.81643">
        <ele>543.3</ele>
        <time>2020-08-16T15:43:12Z</time>
      </trkpt>
      <trkpt lat="47.85415" lon="6.81636">
        <ele>543.8</ele>
        <time>2020-08-16T15:43:17Z</time>
      </trkpt>
      <trkpt lat="47.85414" lon="6.81628">
        <ele>544.4</ele>
        <time>2020-08-16T15:43:22Z</time>
      </trkpt>
      <trkpt lat="47.85414" lon="6.81621">
        <ele>544.7</ele>
        <time>2020-08-16T15:43:26Z</time>
      </trkpt>
      <trkpt lat="47.85412" lon="6.81614">
        <ele>544.6</ele>
        <time>2020-08-16T15:43:30Z</time>
      </trkpt>
      <trkpt lat="47.85412" lon="6.81606">
        <ele>544.2</ele>
        <time>2020-08-16T15:43:35Z</time>
      </trkpt>
      <trkpt lat="47.85411" lon="6.816">
        <ele>543.7</ele>
        <time>2020-08-16T15:43:40Z</time>
      </trkpt>
      <trkpt lat="47.8541" lon="6.81592">
        <ele>543.2</ele>
        <time>2020-08-16T15:43:45Z</time>
      </trkpt>
      <trkpt lat="47.85409" lon="6.81585">
        <ele>542.5</ele>
        <time>2020-08-16T15:43:50Z</time>
      </trkpt>
      <trkpt lat="47.85407" lon="6.81579">
        <ele>541.8</ele>
        <time>2020-08-16T15:43:55Z</time>
      </trkpt>
      <trkpt lat="47.85409" lon="6.81545">
        <ele>558.1</ele>
        <time>2020-08-16T15:44:23Z</time>
      </trkpt>
      <trkpt lat="47.85404" lon="6.81544">
        <ele>553.8</ele>
        <time>2020-08-16T15:44:27Z</time>
      </trkpt>
      <trkpt lat="47.85397" lon="6.81539">
        <ele>550.1</ele>
        <time>2020-08-16T15:44:30Z</time>
      </trkpt>
      <trkpt lat="47.85394" lon="6.81533">
        <ele>548.1</ele>
        <time>2020-08-16T15:44:33Z</time>
      </trkpt>
      <trkpt lat="47.85391" lon="6.81528">
        <ele>547.2</ele>
        <time>2020-08-16T15:44:36Z</time>
      </trkpt>
      <trkpt lat="47.85389" lon="6.81519">
        <ele>545.2</ele>
        <time>2020-08-16T15:44:41Z</time>
      </trkpt>
      <trkpt lat="47.85387" lon="6.81512">
        <ele>543.8</ele>
        <time>2020-08-16T15:44:45Z</time>
      </trkpt>
      <trkpt lat="47.85385" lon="6.81506">
        <ele>542.8</ele>
        <time>2020-08-16T15:44:49Z</time>
      </trkpt>
      <trkpt lat="47.85384" lon="6.81499">
        <ele>542.2</ele>
        <time>2020-08-16T15:44:54Z</time>
      </trkpt>
      <trkpt lat="47.85383" lon="6.81491">
        <ele>541.9</ele>
        <time>2020-08-16T15:44:58Z</time>
      </trkpt>
      <trkpt lat="47.85383" lon="6.81485">
        <ele>541.6</ele>
        <time>2020-08-16T15:45:02Z</time>
      </trkpt>
      <trkpt lat="47.85382" lon="6.81478">
        <ele>541.7</ele>
        <time>2020-08-16T15:45:06Z</time>
      </trkpt>
      <trkpt lat="47.85381" lon="6.8147">
        <ele>541.9</ele>
        <time>2020-08-16T15:45:11Z</time>
      </trkpt>
      <trkpt lat="47.8538" lon="6.81463">
        <ele>542.1</ele>
        <time>2020-08-16T15:45:16Z</time>
      </trkpt>
      <trkpt lat="47.85378" lon="6.81456">
        <ele>541.7</ele>
        <time>2020-08-16T15:45:25Z</time>
      </trkpt>
      <trkpt lat="47.85378" lon="6.81448">
        <ele>541.1</ele>
        <time>2020-08-16T15:45:30Z</time>
      </trkpt>
      <trkpt lat="47.85377" lon="6.81441">
        <ele>540.7</ele>
        <time>2020-08-16T15:45:35Z</time>
      </trkpt>
      <trkpt lat="47.85376" lon="6.81433">
        <ele>540.5</ele>
        <time>2020-08-16T15:45:40Z</time>
      </trkpt>
      <trkpt lat="47.85375" lon="6.81426">
        <ele>540.4</ele>
        <time>2020-08-16T15:45:44Z</time>
      </trkpt>
      <trkpt lat="47.85375" lon="6.81419">
        <ele>540.2</ele>
        <time>2020-08-16T15:45:48Z</time>
      </trkpt>
      <trkpt lat="47.85374" lon="6.81411">
        <ele>540.1</ele>
        <time>2020-08-16T15:45:53Z</time>
      </trkpt>
      <trkpt lat="47.85372" lon="6.81404">
        <ele>540</ele>
        <time>2020-08-16T15:45:58Z</time>
      </trkpt>
      <trkpt lat="47.8537" lon="6.81398">
        <ele>539.6</ele>
        <time>2020-08-16T15:46:05Z</time>
      </trkpt>
      <trkpt lat="47.8537" lon="6.8139">
        <ele>538.9</ele>
        <time>2020-08-16T15:46:12Z</time>
      </trkpt>
      <trkpt lat="47.8537" lon="6.81383">
        <ele>538.6</ele>
        <time>2020-08-16T15:46:16Z</time>
      </trkpt>
      <trkpt lat="47.8537" lon="6.81375">
        <ele>538.5</ele>
        <time>2020-08-16T15:46:20Z</time>
      </trkpt>
      <trkpt lat="47.85369" lon="6.81368">
        <ele>538.7</ele>
        <time>2020-08-16T15:46:24Z</time>
      </trkpt>
      <trkpt lat="47.85367" lon="6.8136">
        <ele>539</ele>
        <time>2020-08-16T15:46:29Z</time>
      </trkpt>
      <trkpt lat="47.85366" lon="6.81353">
        <ele>539.3</ele>
        <time>2020-08-16T15:46:34Z</time>
      </trkpt>
      <trkpt lat="47.85366" lon="6.81345">
        <ele>539.7</ele>
        <time>2020-08-16T15:46:41Z</time>
      </trkpt>
      <trkpt lat="47.85365" lon="6.81338">
        <ele>539.8</ele>
        <time>2020-08-16T15:46:46Z</time>
      </trkpt>
      <trkpt lat="47.85364" lon="6.8133">
        <ele>540</ele>
        <time>2020-08-16T15:46:51Z</time>
      </trkpt>
      <trkpt lat="47.85364" lon="6.81323">
        <ele>539.9</ele>
        <time>2020-08-16T15:46:56Z</time>
      </trkpt>
      <trkpt lat="47.85363" lon="6.81315">
        <ele>540.6</ele>
        <time>2020-08-16T15:47:33Z</time>
      </trkpt>
      <trkpt lat="47.85362" lon="6.81308">
        <ele>540.7</ele>
        <time>2020-08-16T15:47:37Z</time>
      </trkpt>
      <trkpt lat="47.8536" lon="6.81302">
        <ele>540.8</ele>
        <time>2020-08-16T15:47:41Z</time>
      </trkpt>
      <trkpt lat="47.85358" lon="6.81295">
        <ele>540.5</ele>
        <time>2020-08-16T15:47:46Z</time>
      </trkpt>
      <trkpt lat="47.85358" lon="6.81288">
        <ele>539.6</ele>
        <time>2020-08-16T15:47:52Z</time>
      </trkpt>
      <trkpt lat="47.85357" lon="6.81281">
        <ele>539</ele>
        <time>2020-08-16T15:47:57Z</time>
      </trkpt>
      <trkpt lat="47.85354" lon="6.81276">
        <ele>538.5</ele>
        <time>2020-08-16T15:48:03Z</time>
      </trkpt>
      <trkpt lat="47.8535" lon="6.81273">
        <ele>538.1</ele>
        <time>2020-08-16T15:48:09Z</time>
      </trkpt>
      <trkpt lat="47.85345" lon="6.81272">
        <ele>537.6</ele>
        <time>2020-08-16T15:48:43Z</time>
      </trkpt>
      <trkpt lat="47.8534" lon="6.81272">
        <ele>537.5</ele>
        <time>2020-08-16T15:48:49Z</time>
      </trkpt>
      <trkpt lat="47.85335" lon="6.81271">
        <ele>537.4</ele>
        <time>2020-08-16T15:48:54Z</time>
      </trkpt>
      <trkpt lat="47.8533" lon="6.81271">
        <ele>537.4</ele>
        <time>2020-08-16T15:48:58Z</time>
      </trkpt>
      <trkpt lat="47.85326" lon="6.8127">
        <ele>537.4</ele>
        <time>2020-08-16T15:49:02Z</time>
      </trkpt>
      <trkpt lat="47.85321" lon="6.8127">
        <ele>537.3</ele>
        <time>2020-08-16T15:49:06Z</time>
      </trkpt>
      <trkpt lat="47.85316" lon="6.8127">
        <ele>537.4</ele>
        <time>2020-08-16T15:49:10Z</time>
      </trkpt>
      <trkpt lat="47.85312" lon="6.81268">
        <ele>537.5</ele>
        <time>2020-08-16T15:49:14Z</time>
      </trkpt>
      <trkpt lat="47.85307" lon="6.81266">
        <ele>537.7</ele>
        <time>2020-08-16T15:49:19Z</time>
      </trkpt>
      <trkpt lat="47.85302" lon="6.81265">
        <ele>538.1</ele>
        <time>2020-08-16T15:49:24Z</time>
      </trkpt>
      <trkpt lat="47.85297" lon="6.81266">
        <ele>538.4</ele>
        <time>2020-08-16T15:49:29Z</time>
      </trkpt>
      <trkpt lat="47.85293" lon="6.81268">
        <ele>538.7</ele>
        <time>2020-08-16T15:49:33Z</time>
      </trkpt>
      <trkpt lat="47.85289" lon="6.81273">
        <ele>539.2</ele>
        <time>2020-08-16T15:49:38Z</time>
      </trkpt>
      <trkpt lat="47.85286" lon="6.81277">
        <ele>539.9</ele>
        <time>2020-08-16T15:49:59Z</time>
      </trkpt>
      <trkpt lat="47.85281" lon="6.81275">
        <ele>539.7</ele>
        <time>2020-08-16T15:50:04Z</time>
      </trkpt>
      <trkpt lat="47.85276" lon="6.81274">
        <ele>539.7</ele>
        <time>2020-08-16T15:50:09Z</time>
      </trkpt>
      <trkpt lat="47.85271" lon="6.81272">
        <ele>539.7</ele>
        <time>2020-08-16T15:50:14Z</time>
      </trkpt>
      <trkpt lat="47.85266" lon="6.81273">
        <ele>539.7</ele>
        <time>2020-08-16T15:50:19Z</time>
      </trkpt>
      <trkpt lat="47.85261" lon="6.81273">
        <ele>539.8</ele>
        <time>2020-08-16T15:50:24Z</time>
      </trkpt>
      <trkpt lat="47.85257" lon="6.81275">
        <ele>539.9</ele>
        <time>2020-08-16T15:50:28Z</time>
      </trkpt>
      <trkpt lat="47.85251" lon="6.81276">
        <ele>540</ele>
        <time>2020-08-16T15:50:32Z</time>
      </trkpt>
      <trkpt lat="47.85246" lon="6.81276">
        <ele>540.2</ele>
        <time>2020-08-16T15:50:37Z</time>
      </trkpt>
      <trkpt lat="47.85241" lon="6.81276">
        <ele>540.6</ele>
        <time>2020-08-16T15:50:42Z</time>
      </trkpt>
      <trkpt lat="47.85235" lon="6.81275">
        <ele>541.2</ele>
        <time>2020-08-16T15:50:49Z</time>
      </trkpt>
      <trkpt lat="47.85231" lon="6.81273">
        <ele>541.5</ele>
        <time>2020-08-16T15:50:54Z</time>
      </trkpt>
      <trkpt lat="47.85226" lon="6.8127">
        <ele>541.8</ele>
        <time>2020-08-16T15:51:00Z</time>
      </trkpt>
      <trkpt lat="47.85221" lon="6.81269">
        <ele>542</ele>
        <time>2020-08-16T15:51:05Z</time>
      </trkpt>
      <trkpt lat="47.85216" lon="6.81268">
        <ele>542.4</ele>
        <time>2020-08-16T15:51:09Z</time>
      </trkpt>
      <trkpt lat="47.85211" lon="6.81266">
        <ele>543</ele>
        <time>2020-08-16T15:51:14Z</time>
      </trkpt>
      <trkpt lat="47.85206" lon="6.81265">
        <ele>543.7</ele>
        <time>2020-08-16T15:51:20Z</time>
      </trkpt>
      <trkpt lat="47.85202" lon="6.81261">
        <ele>544.2</ele>
        <time>2020-08-16T15:51:35Z</time>
      </trkpt>
      <trkpt lat="47.85197" lon="6.81257">
        <ele>544.2</ele>
        <time>2020-08-16T15:51:40Z</time>
      </trkpt>
      <trkpt lat="47.85193" lon="6.81254">
        <ele>544.1</ele>
        <time>2020-08-16T15:51:46Z</time>
      </trkpt>
      <trkpt lat="47.85188" lon="6.81253">
        <ele>544</ele>
        <time>2020-08-16T15:51:52Z</time>
      </trkpt>
      <trkpt lat="47.85183" lon="6.8125">
        <ele>543.8</ele>
        <time>2020-08-16T15:51:57Z</time>
      </trkpt>
      <trkpt lat="47.85178" lon="6.81248">
        <ele>543.7</ele>
        <time>2020-08-16T15:52:02Z</time>
      </trkpt>
      <trkpt lat="47.85174" lon="6.81245">
        <ele>543.7</ele>
        <time>2020-08-16T15:52:08Z</time>
      </trkpt>
      <trkpt lat="47.8517" lon="6.81243">
        <ele>543.7</ele>
        <time>2020-08-16T15:52:13Z</time>
      </trkpt>
      <trkpt lat="47.85166" lon="6.81238">
        <ele>543.8</ele>
        <time>2020-08-16T15:52:18Z</time>
      </trkpt>
      <trkpt lat="47.85163" lon="6.81232">
        <ele>544</ele>
        <time>2020-08-16T15:52:23Z</time>
      </trkpt>
      <trkpt lat="47.85163" lon="6.81225">
        <ele>545.2</ele>
        <time>2020-08-16T15:52:39Z</time>
      </trkpt>
      <trkpt lat="47.85159" lon="6.81223">
        <ele>546.2</ele>
        <time>2020-08-16T15:52:48Z</time>
      </trkpt>
      <trkpt lat="47.85155" lon="6.8122">
        <ele>546.7</ele>
        <time>2020-08-16T15:52:54Z</time>
      </trkpt>
      <trkpt lat="47.8515" lon="6.81216">
        <ele>547</ele>
        <time>2020-08-16T15:52:59Z</time>
      </trkpt>
      <trkpt lat="47.85146" lon="6.81212">
        <ele>547.4</ele>
        <time>2020-08-16T15:53:04Z</time>
      </trkpt>
      <trkpt lat="47.85142" lon="6.81208">
        <ele>547.8</ele>
        <time>2020-08-16T15:53:08Z</time>
      </trkpt>
      <trkpt lat="47.85139" lon="6.81202">
        <ele>548.4</ele>
        <time>2020-08-16T15:53:14Z</time>
      </trkpt>
      <trkpt lat="47.85136" lon="6.81197">
        <ele>548.9</ele>
        <time>2020-08-16T15:53:20Z</time>
      </trkpt>
      <trkpt lat="47.85132" lon="6.81193">
        <ele>549.2</ele>
        <time>2020-08-16T15:53:25Z</time>
      </trkpt>
      <trkpt lat="47.85127" lon="6.8119">
        <ele>549.4</ele>
        <time>2020-08-16T15:53:29Z</time>
      </trkpt>
      <trkpt lat="47.85122" lon="6.81186">
        <ele>549.7</ele>
        <time>2020-08-16T15:53:34Z</time>
      </trkpt>
      <trkpt lat="47.85119" lon="6.81182">
        <ele>550</ele>
        <time>2020-08-16T15:53:39Z</time>
      </trkpt>
      <trkpt lat="47.85115" lon="6.81178">
        <ele>550.4</ele>
        <time>2020-08-16T15:53:44Z</time>
      </trkpt>
      <trkpt lat="47.85111" lon="6.81174">
        <ele>550.8</ele>
        <time>2020-08-16T15:53:48Z</time>
      </trkpt>
      <trkpt lat="47.85107" lon="6.81167">
        <ele>551.2</ele>
        <time>2020-08-16T15:53:53Z</time>
      </trkpt>
      <trkpt lat="47.85104" lon="6.81163">
        <ele>551.6</ele>
        <time>2020-08-16T15:53:57Z</time>
      </trkpt>
      <trkpt lat="47.851" lon="6.81158">
        <ele>552</ele>
        <time>2020-08-16T15:54:01Z</time>
      </trkpt>
      <trkpt lat="47.85096" lon="6.81153">
        <ele>552.3</ele>
        <time>2020-08-16T15:54:06Z</time>
      </trkpt>
      <trkpt lat="47.85092" lon="6.81149">
        <ele>552.4</ele>
        <time>2020-08-16T15:54:11Z</time>
      </trkpt>
      <trkpt lat="47.85087" lon="6.81146">
        <ele>552.4</ele>
        <time>2020-08-16T15:54:15Z</time>
      </trkpt>
      <trkpt lat="47.85083" lon="6.81141">
        <ele>552.4</ele>
        <time>2020-08-16T15:54:19Z</time>
      </trkpt>
      <trkpt lat="47.85079" lon="6.81136">
        <ele>552.3</ele>
        <time>2020-08-16T15:54:24Z</time>
      </trkpt>
      <trkpt lat="47.85076" lon="6.81132">
        <ele>551.6</ele>
        <time>2020-08-16T15:54:33Z</time>
      </trkpt>
      <trkpt lat="47.85071" lon="6.81128">
        <ele>551.2</ele>
        <time>2020-08-16T15:54:39Z</time>
      </trkpt>
      <trkpt lat="47.85067" lon="6.81123">
        <ele>551.3</ele>
        <time>2020-08-16T15:54:48Z</time>
      </trkpt>
      <trkpt lat="47.85063" lon="6.81118">
        <ele>551.5</ele>
        <time>2020-08-16T15:54:53Z</time>
      </trkpt>
      <trkpt lat="47.8506" lon="6.81113">
        <ele>551.9</ele>
        <time>2020-08-16T15:54:58Z</time>
      </trkpt>
      <trkpt lat="47.85056" lon="6.81108">
        <ele>552.3</ele>
        <time>2020-08-16T15:55:03Z</time>
      </trkpt>
      <trkpt lat="47.85051" lon="6.81105">
        <ele>552.6</ele>
        <time>2020-08-16T15:55:08Z</time>
      </trkpt>
      <trkpt lat="47.85048" lon="6.811">
        <ele>552.8</ele>
        <time>2020-08-16T15:55:13Z</time>
      </trkpt>
      <trkpt lat="47.85044" lon="6.81094">
        <ele>552.8</ele>
        <time>2020-08-16T15:55:18Z</time>
      </trkpt>
      <trkpt lat="47.8504" lon="6.81089">
        <ele>552.6</ele>
        <time>2020-08-16T15:55:23Z</time>
      </trkpt>
      <trkpt lat="47.85035" lon="6.81085">
        <ele>552.3</ele>
        <time>2020-08-16T15:55:28Z</time>
      </trkpt>
      <trkpt lat="47.85031" lon="6.81082">
        <ele>552.3</ele>
        <time>2020-08-16T15:55:33Z</time>
      </trkpt>
      <trkpt lat="47.85026" lon="6.81078">
        <ele>552.3</ele>
        <time>2020-08-16T15:55:37Z</time>
      </trkpt>
      <trkpt lat="47.85023" lon="6.81074">
        <ele>552.3</ele>
        <time>2020-08-16T15:55:42Z</time>
      </trkpt>
      <trkpt lat="47.85018" lon="6.81071">
        <ele>552.2</ele>
        <time>2020-08-16T15:55:47Z</time>
      </trkpt>
      <trkpt lat="47.85014" lon="6.81069">
        <ele>552.1</ele>
        <time>2020-08-16T15:55:52Z</time>
      </trkpt>
      <trkpt lat="47.85009" lon="6.81067">
        <ele>552.2</ele>
        <time>2020-08-16T15:55:59Z</time>
      </trkpt>
      <trkpt lat="47.85005" lon="6.81063">
        <ele>550.9</ele>
        <time>2020-08-16T15:56:12Z</time>
      </trkpt>
      <trkpt lat="47.85001" lon="6.8106">
        <ele>550.4</ele>
        <time>2020-08-16T15:56:17Z</time>
      </trkpt>
      <trkpt lat="47.84996" lon="6.81056">
        <ele>549.7</ele>
        <time>2020-08-16T15:56:23Z</time>
      </trkpt>
      <trkpt lat="47.84991" lon="6.81053">
        <ele>549</ele>
        <time>2020-08-16T15:56:28Z</time>
      </trkpt>
      <trkpt lat="47.84986" lon="6.81049">
        <ele>548.5</ele>
        <time>2020-08-16T15:56:34Z</time>
      </trkpt>
      <trkpt lat="47.84983" lon="6.81045">
        <ele>548.1</ele>
        <time>2020-08-16T15:56:39Z</time>
      </trkpt>
      <trkpt lat="47.84979" lon="6.81041">
        <ele>547.8</ele>
        <time>2020-08-16T15:56:43Z</time>
      </trkpt>
      <trkpt lat="47.84975" lon="6.81038">
        <ele>547.7</ele>
        <time>2020-08-16T15:56:47Z</time>
      </trkpt>
      <trkpt lat="47.8497" lon="6.81039">
        <ele>547.7</ele>
        <time>2020-08-16T15:56:52Z</time>
      </trkpt>
      <trkpt lat="47.84967" lon="6.81044">
        <ele>548.2</ele>
        <time>2020-08-16T16:00:31Z</time>
      </trkpt>
      <trkpt lat="47.84969" lon="6.81037">
        <ele>548.6</ele>
        <time>2020-08-16T16:01:42Z</time>
      </trkpt>
      <trkpt lat="47.84975" lon="6.81035">
        <ele>549.1</ele>
        <time>2020-08-16T16:03:59Z</time>
      </trkpt>
      <trkpt lat="47.8498" lon="6.81037">
        <ele>549.1</ele>
        <time>2020-08-16T16:04:05Z</time>
      </trkpt>
      <trkpt lat="47.84982" lon="6.81044">
        <ele>549.3</ele>
        <time>2020-08-16T16:04:18Z</time>
      </trkpt>
      <trkpt lat="47.84976" lon="6.81043">
        <ele>549.6</ele>
        <time>2020-08-16T16:04:32Z</time>
      </trkpt>
      <trkpt lat="47.84973" lon="6.81039">
        <ele>549.6</ele>
        <time>2020-08-16T16:04:37Z</time>
      </trkpt>
      <trkpt lat="47.84968" lon="6.81038">
        <ele>549.9</ele>
        <time>2020-08-16T16:04:51Z</time>
      </trkpt>
      <trkpt lat="47.84964" lon="6.81035">
        <ele>551</ele>
        <time>2020-08-16T16:05:48Z</time>
      </trkpt>
      <trkpt lat="47.84967" lon="6.8104">
        <ele>550.6</ele>
        <time>2020-08-16T16:07:06Z</time>
      </trkpt>
      <trkpt lat="47.84968" lon="6.81029">
        <ele>549.8</ele>
        <time>2020-08-16T16:08:21Z</time>
      </trkpt>
      <trkpt lat="47.84968" lon="6.81036">
        <ele>550.3</ele>
        <time>2020-08-16T16:08:38Z</time>
      </trkpt>
      <trkpt lat="47.84969" lon="6.81043">
        <ele>551</ele>
        <time>2020-08-16T16:08:49Z</time>
      </trkpt>
      <trkpt lat="47.84971" lon="6.81036">
        <ele>551.5</ele>
        <time>2020-08-16T16:09:39Z</time>
      </trkpt>
      <trkpt lat="47.84968" lon="6.8103">
        <ele>551.6</ele>
        <time>2020-08-16T16:10:04Z</time>
      </trkpt>
      <trkpt lat="47.84971" lon="6.81038">
        <ele>551.6</ele>
        <time>2020-08-16T16:11:00Z</time>
      </trkpt>
      <trkpt lat="47.84966" lon="6.81036">
        <ele>552.6</ele>
        <time>2020-08-16T16:11:58Z</time>
      </trkpt>
      <trkpt lat="47.84962" lon="6.81033">
        <ele>553.1</ele>
        <time>2020-08-16T16:12:04Z</time>
      </trkpt>
      <trkpt lat="47.84957" lon="6.8103">
        <ele>553.1</ele>
        <time>2020-08-16T16:12:14Z</time>
      </trkpt>
      <trkpt lat="47.84952" lon="6.8103">
        <ele>552.9</ele>
        <time>2020-08-16T16:12:19Z</time>
      </trkpt>
      <trkpt lat="47.84947" lon="6.81029">
        <ele>552.9</ele>
        <time>2020-08-16T16:12:25Z</time>
      </trkpt>
      <trkpt lat="47.84942" lon="6.81029">
        <ele>553.1</ele>
        <time>2020-08-16T16:12:33Z</time>
      </trkpt>
      <trkpt lat="47.84937" lon="6.81028">
        <ele>553.3</ele>
        <time>2020-08-16T16:12:39Z</time>
      </trkpt>
      <trkpt lat="47.84932" lon="6.8103">
        <ele>553.5</ele>
        <time>2020-08-16T16:12:44Z</time>
      </trkpt>
      <trkpt lat="47.84928" lon="6.81034">
        <ele>554.6</ele>
        <time>2020-08-16T16:13:02Z</time>
      </trkpt>
      <trkpt lat="47.84924" lon="6.81032">
        <ele>555.1</ele>
        <time>2020-08-16T16:13:08Z</time>
      </trkpt>
      <trkpt lat="47.84919" lon="6.81035">
        <ele>554.5</ele>
        <time>2020-08-16T16:13:28Z</time>
      </trkpt>
      <trkpt lat="47.84917" lon="6.81041">
        <ele>554.2</ele>
        <time>2020-08-16T16:14:10Z</time>
      </trkpt>
      <trkpt lat="47.84913" lon="6.81035">
        <ele>555.5</ele>
        <time>2020-08-16T16:14:35Z</time>
      </trkpt>
      <trkpt lat="47.84907" lon="6.81035">
        <ele>556.2</ele>
        <time>2020-08-16T16:14:40Z</time>
      </trkpt>
      <trkpt lat="47.84903" lon="6.81034">
        <ele>558.1</ele>
        <time>2020-08-16T16:15:09Z</time>
      </trkpt>
      <trkpt lat="47.84897" lon="6.81034">
        <ele>558.6</ele>
        <time>2020-08-16T16:15:17Z</time>
      </trkpt>
      <trkpt lat="47.84893" lon="6.81034">
        <ele>558.9</ele>
        <time>2020-08-16T16:15:22Z</time>
      </trkpt>
      <trkpt lat="47.84888" lon="6.81033">
        <ele>559.1</ele>
        <time>2020-08-16T16:15:27Z</time>
      </trkpt>
      <trkpt lat="47.84884" lon="6.8103">
        <ele>559.3</ele>
        <time>2020-08-16T16:15:32Z</time>
      </trkpt>
      <trkpt lat="47.8488" lon="6.81028">
        <ele>560.3</ele>
        <time>2020-08-16T16:15:41Z</time>
      </trkpt>
      <trkpt lat="47.84875" lon="6.81027">
        <ele>560.5</ele>
        <time>2020-08-16T16:16:36Z</time>
      </trkpt>
      <trkpt lat="47.8487" lon="6.81025">
        <ele>560.8</ele>
        <time>2020-08-16T16:16:41Z</time>
      </trkpt>
      <trkpt lat="47.84865" lon="6.8102">
        <ele>561.4</ele>
        <time>2020-08-16T16:16:47Z</time>
      </trkpt>
      <trkpt lat="47.84861" lon="6.81017">
        <ele>562.1</ele>
        <time>2020-08-16T16:16:52Z</time>
      </trkpt>
      <trkpt lat="47.84856" lon="6.8102">
        <ele>563.6</ele>
        <time>2020-08-16T16:17:37Z</time>
      </trkpt>
      <trkpt lat="47.84852" lon="6.81015">
        <ele>563.6</ele>
        <time>2020-08-16T16:17:43Z</time>
      </trkpt>
      <trkpt lat="47.84848" lon="6.81012">
        <ele>563.9</ele>
        <time>2020-08-16T16:17:48Z</time>
      </trkpt>
      <trkpt lat="47.84843" lon="6.8101">
        <ele>564.3</ele>
        <time>2020-08-16T16:17:55Z</time>
      </trkpt>
      <trkpt lat="47.84839" lon="6.81006">
        <ele>564.5</ele>
        <time>2020-08-16T16:18:04Z</time>
      </trkpt>
      <trkpt lat="47.84834" lon="6.81005">
        <ele>564.7</ele>
        <time>2020-08-16T16:18:09Z</time>
      </trkpt>
      <trkpt lat="47.84829" lon="6.81008">
        <ele>564.9</ele>
        <time>2020-08-16T16:18:14Z</time>
      </trkpt>
      <trkpt lat="47.84825" lon="6.81008">
        <ele>565.1</ele>
        <time>2020-08-16T16:18:19Z</time>
      </trkpt>
      <trkpt lat="47.8482" lon="6.81008">
        <ele>565.4</ele>
        <time>2020-08-16T16:18:24Z</time>
      </trkpt>
      <trkpt lat="47.84815" lon="6.81008">
        <ele>565.6</ele>
        <time>2020-08-16T16:18:29Z</time>
      </trkpt>
      <trkpt lat="47.8481" lon="6.81009">
        <ele>565.8</ele>
        <time>2020-08-16T16:18:35Z</time>
      </trkpt>
      <trkpt lat="47.84805" lon="6.81007">
        <ele>565.9</ele>
        <time>2020-08-16T16:18:40Z</time>
      </trkpt>
      <trkpt lat="47.84801" lon="6.81007">
        <ele>566.3</ele>
        <time>2020-08-16T16:18:46Z</time>
      </trkpt>
      <trkpt lat="47.84796" lon="6.81009">
        <ele>566.9</ele>
        <time>2020-08-16T16:18:52Z</time>
      </trkpt>
      <trkpt lat="47.84792" lon="6.81013">
        <ele>567.5</ele>
        <time>2020-08-16T16:18:58Z</time>
      </trkpt>
      <trkpt lat="47.84786" lon="6.81018">
        <ele>568.2</ele>
        <time>2020-08-16T16:19:03Z</time>
      </trkpt>
      <trkpt lat="47.84782" lon="6.8102">
        <ele>568.6</ele>
        <time>2020-08-16T16:19:07Z</time>
      </trkpt>
      <trkpt lat="47.84777" lon="6.81018">
        <ele>570.1</ele>
        <time>2020-08-16T16:19:24Z</time>
      </trkpt>
      <trkpt lat="47.84773" lon="6.81021">
        <ele>570.7</ele>
        <time>2020-08-16T16:19:30Z</time>
      </trkpt>
      <trkpt lat="47.84768" lon="6.81024">
        <ele>571.2</ele>
        <time>2020-08-16T16:19:36Z</time>
      </trkpt>
      <trkpt lat="47.84763" lon="6.81025">
        <ele>572</ele>
        <time>2020-08-16T16:19:45Z</time>
      </trkpt>
      <trkpt lat="47.84758" lon="6.81024">
        <ele>572.7</ele>
        <time>2020-08-16T16:19:53Z</time>
      </trkpt>
      <trkpt lat="47.84754" lon="6.81028">
        <ele>572.6</ele>
        <time>2020-08-16T16:20:01Z</time>
      </trkpt>
      <trkpt lat="47.84749" lon="6.81027">
        <ele>572.2</ele>
        <time>2020-08-16T16:20:08Z</time>
      </trkpt>
      <trkpt lat="47.84744" lon="6.81026">
        <ele>572</ele>
        <time>2020-08-16T16:20:13Z</time>
      </trkpt>
      <trkpt lat="47.84738" lon="6.81026">
        <ele>572</ele>
        <time>2020-08-16T16:20:18Z</time>
      </trkpt>
      <trkpt lat="47.84733" lon="6.81025">
        <ele>571.9</ele>
        <time>2020-08-16T16:20:23Z</time>
      </trkpt>
      <trkpt lat="47.84728" lon="6.81026">
        <ele>572.1</ele>
        <time>2020-08-16T16:20:29Z</time>
      </trkpt>
      <trkpt lat="47.84724" lon="6.81025">
        <ele>572.3</ele>
        <time>2020-08-16T16:20:34Z</time>
      </trkpt>
      <trkpt lat="47.84719" lon="6.81024">
        <ele>572.8</ele>
        <time>2020-08-16T16:20:39Z</time>
      </trkpt>
      <trkpt lat="47.84714" lon="6.81024">
        <ele>572.9</ele>
        <time>2020-08-16T16:20:43Z</time>
      </trkpt>
      <trkpt lat="47.84709" lon="6.81023">
        <ele>573.1</ele>
        <time>2020-08-16T16:20:47Z</time>
      </trkpt>
      <trkpt lat="47.84703" lon="6.81024">
        <ele>573</ele>
        <time>2020-08-16T16:20:51Z</time>
      </trkpt>
      <trkpt lat="47.84699" lon="6.81025">
        <ele>572.8</ele>
        <time>2020-08-16T16:20:56Z</time>
      </trkpt>
      <trkpt lat="47.84694" lon="6.81027">
        <ele>572.7</ele>
        <time>2020-08-16T16:21:01Z</time>
      </trkpt>
      <trkpt lat="47.84689" lon="6.81026">
        <ele>572.9</ele>
        <time>2020-08-16T16:21:07Z</time>
      </trkpt>
      <trkpt lat="47.84684" lon="6.81025">
        <ele>572.8</ele>
        <time>2020-08-16T16:21:14Z</time>
      </trkpt>
      <trkpt lat="47.84679" lon="6.81025">
        <ele>572.7</ele>
        <time>2020-08-16T16:21:18Z</time>
      </trkpt>
      <trkpt lat="47.84674" lon="6.81026">
        <ele>572.8</ele>
        <time>2020-08-16T16:21:21Z</time>
      </trkpt>
      <trkpt lat="47.8467" lon="6.81026">
        <ele>573.1</ele>
        <time>2020-08-16T16:21:26Z</time>
      </trkpt>
      <trkpt lat="47.84664" lon="6.81026">
        <ele>573.1</ele>
        <time>2020-08-16T16:21:31Z</time>
      </trkpt>
      <trkpt lat="47.84659" lon="6.81027">
        <ele>572.8</ele>
        <time>2020-08-16T16:21:35Z</time>
      </trkpt>
      <trkpt lat="47.84655" lon="6.81028">
        <ele>572.4</ele>
        <time>2020-08-16T16:21:39Z</time>
      </trkpt>
      <trkpt lat="47.8465" lon="6.81029">
        <ele>572</ele>
        <time>2020-08-16T16:21:44Z</time>
      </trkpt>
      <trkpt lat="47.84646" lon="6.81029">
        <ele>571.8</ele>
        <time>2020-08-16T16:21:50Z</time>
      </trkpt>
      <trkpt lat="47.84641" lon="6.8103">
        <ele>571.8</ele>
        <time>2020-08-16T16:21:54Z</time>
      </trkpt>
      <trkpt lat="47.84636" lon="6.81032">
        <ele>572.3</ele>
        <time>2020-08-16T16:22:00Z</time>
      </trkpt>
      <trkpt lat="47.84631" lon="6.81034">
        <ele>572.8</ele>
        <time>2020-08-16T16:22:06Z</time>
      </trkpt>
      <trkpt lat="47.84627" lon="6.81035">
        <ele>573.3</ele>
        <time>2020-08-16T16:22:11Z</time>
      </trkpt>
      <trkpt lat="47.84622" lon="6.81036">
        <ele>573.4</ele>
        <time>2020-08-16T16:22:16Z</time>
      </trkpt>
      <trkpt lat="47.84618" lon="6.81039">
        <ele>573.5</ele>
        <time>2020-08-16T16:22:22Z</time>
      </trkpt>
      <trkpt lat="47.84614" lon="6.81044">
        <ele>573.8</ele>
        <time>2020-08-16T16:22:28Z</time>
      </trkpt>
      <trkpt lat="47.84611" lon="6.81048">
        <ele>574.5</ele>
        <time>2020-08-16T16:22:34Z</time>
      </trkpt>
      <trkpt lat="47.84611" lon="6.81041">
        <ele>574.8</ele>
        <time>2020-08-16T16:22:52Z</time>
      </trkpt>
      <trkpt lat="47.84606" lon="6.81043">
        <ele>574.8</ele>
        <time>2020-08-16T16:23:01Z</time>
      </trkpt>
      <trkpt lat="47.84601" lon="6.81049">
        <ele>575</ele>
        <time>2020-08-16T16:23:06Z</time>
      </trkpt>
      <trkpt lat="47.84596" lon="6.81053">
        <ele>575.1</ele>
        <time>2020-08-16T16:23:10Z</time>
      </trkpt>
      <trkpt lat="47.84592" lon="6.81056">
        <ele>575</ele>
        <time>2020-08-16T16:23:14Z</time>
      </trkpt>
      <trkpt lat="47.84589" lon="6.81061">
        <ele>574.9</ele>
        <time>2020-08-16T16:23:17Z</time>
      </trkpt>
      <trkpt lat="47.84585" lon="6.81065">
        <ele>574.7</ele>
        <time>2020-08-16T16:23:20Z</time>
      </trkpt>
      <trkpt lat="47.84579" lon="6.81066">
        <ele>574.5</ele>
        <time>2020-08-16T16:23:24Z</time>
      </trkpt>
      <trkpt lat="47.84574" lon="6.81067">
        <ele>574.4</ele>
        <time>2020-08-16T16:23:28Z</time>
      </trkpt>
      <trkpt lat="47.8457" lon="6.81062">
        <ele>574.5</ele>
        <time>2020-08-16T16:23:32Z</time>
      </trkpt>
      <trkpt lat="47.84567" lon="6.81057">
        <ele>574.6</ele>
        <time>2020-08-16T16:23:36Z</time>
      </trkpt>
      <trkpt lat="47.84563" lon="6.81052">
        <ele>574.6</ele>
        <time>2020-08-16T16:23:40Z</time>
      </trkpt>
      <trkpt lat="47.8456" lon="6.81047">
        <ele>574.8</ele>
        <time>2020-08-16T16:23:47Z</time>
      </trkpt>
      <trkpt lat="47.84556" lon="6.81044">
        <ele>574.9</ele>
        <time>2020-08-16T16:23:52Z</time>
      </trkpt>
      <trkpt lat="47.84552" lon="6.81039">
        <ele>574.9</ele>
        <time>2020-08-16T16:23:58Z</time>
      </trkpt>
      <trkpt lat="47.84547" lon="6.81036">
        <ele>574.8</ele>
        <time>2020-08-16T16:24:02Z</time>
      </trkpt>
      <trkpt lat="47.84543" lon="6.81033">
        <ele>574.5</ele>
        <time>2020-08-16T16:24:06Z</time>
      </trkpt>
      <trkpt lat="47.84539" lon="6.81029">
        <ele>574.3</ele>
        <time>2020-08-16T16:24:12Z</time>
      </trkpt>
      <trkpt lat="47.84535" lon="6.81024">
        <ele>573.9</ele>
        <time>2020-08-16T16:24:16Z</time>
      </trkpt>
      <trkpt lat="47.84532" lon="6.8102">
        <ele>573.7</ele>
        <time>2020-08-16T16:24:20Z</time>
      </trkpt>
      <trkpt lat="47.84528" lon="6.81016">
        <ele>573.6</ele>
        <time>2020-08-16T16:24:24Z</time>
      </trkpt>
      <trkpt lat="47.84523" lon="6.81012">
        <ele>573.6</ele>
        <time>2020-08-16T16:24:29Z</time>
      </trkpt>
      <trkpt lat="47.84518" lon="6.8101">
        <ele>573.7</ele>
        <time>2020-08-16T16:24:33Z</time>
      </trkpt>
      <trkpt lat="47.84514" lon="6.81009">
        <ele>573.8</ele>
        <time>2020-08-16T16:24:38Z</time>
      </trkpt>
      <trkpt lat="47.84514" lon="6.81002">
        <ele>574.3</ele>
        <time>2020-08-16T16:24:47Z</time>
      </trkpt>
      <trkpt lat="47.84514" lon="6.80994">
        <ele>575.1</ele>
        <time>2020-08-16T16:24:59Z</time>
      </trkpt>
      <trkpt lat="47.84512" lon="6.80987">
        <ele>575.7</ele>
        <time>2020-08-16T16:25:03Z</time>
      </trkpt>
      <trkpt lat="47.84507" lon="6.8099">
        <ele>576.7</ele>
        <time>2020-08-16T16:25:12Z</time>
      </trkpt>
      <trkpt lat="47.84509" lon="6.80996">
        <ele>575.5</ele>
        <time>2020-08-16T16:27:02Z</time>
      </trkpt>
      <trkpt lat="47.84514" lon="6.80992">
        <ele>574.9</ele>
        <time>2020-08-16T16:27:58Z</time>
      </trkpt>
      <trkpt lat="47.84512" lon="6.80984">
        <ele>575</ele>
        <time>2020-08-16T16:28:13Z</time>
      </trkpt>
      <trkpt lat="47.84509" lon="6.8099">
        <ele>575.3</ele>
        <time>2020-08-16T16:28:26Z</time>
      </trkpt>
      <trkpt lat="47.84511" lon="6.80997">
        <ele>575.7</ele>
        <time>2020-08-16T16:28:34Z</time>
      </trkpt>
      <trkpt lat="47.84507" lon="6.81003">
        <ele>577.7</ele>
        <time>2020-08-16T16:28:54Z</time>
      </trkpt>
      <trkpt lat="47.84503" lon="6.81004">
        <ele>578</ele>
        <time>2020-08-16T16:28:57Z</time>
      </trkpt>
      <trkpt lat="47.84507" lon="6.81006">
        <ele>580.1</ele>
        <time>2020-08-16T16:29:23Z</time>
      </trkpt>
      <trkpt lat="47.84512" lon="6.81008">
        <ele>580.4</ele>
        <time>2020-08-16T16:29:30Z</time>
      </trkpt>
      <trkpt lat="47.84516" lon="6.81013">
        <ele>580.9</ele>
        <time>2020-08-16T16:29:36Z</time>
      </trkpt>
      <trkpt lat="47.8452" lon="6.81015">
        <ele>581.4</ele>
        <time>2020-08-16T16:29:41Z</time>
      </trkpt>
      <trkpt lat="47.84523" lon="6.8102">
        <ele>582.3</ele>
        <time>2020-08-16T16:29:50Z</time>
      </trkpt>
      <trkpt lat="47.84527" lon="6.81027">
        <ele>582.5</ele>
        <time>2020-08-16T16:29:54Z</time>
      </trkpt>
      <trkpt lat="47.84532" lon="6.8103">
        <ele>582.6</ele>
        <time>2020-08-16T16:29:57Z</time>
      </trkpt>
      <trkpt lat="47.84537" lon="6.81033">
        <ele>582.7</ele>
        <time>2020-08-16T16:30:00Z</time>
      </trkpt>
      <trkpt lat="47.84543" lon="6.81034">
        <ele>582.9</ele>
        <time>2020-08-16T16:30:05Z</time>
      </trkpt>
      <trkpt lat="47.84548" lon="6.81035">
        <ele>582.8</ele>
        <time>2020-08-16T16:30:09Z</time>
      </trkpt>
      <trkpt lat="47.84553" lon="6.81038">
        <ele>582.4</ele>
        <time>2020-08-16T16:30:12Z</time>
      </trkpt>
      <trkpt lat="47.84558" lon="6.81039">
        <ele>580.5</ele>
        <time>2020-08-16T16:30:24Z</time>
      </trkpt>
      <trkpt lat="47.84563" lon="6.81042">
        <ele>579.5</ele>
        <time>2020-08-16T16:30:30Z</time>
      </trkpt>
      <trkpt lat="47.84567" lon="6.81046">
        <ele>578.7</ele>
        <time>2020-08-16T16:30:34Z</time>
      </trkpt>
      <trkpt lat="47.84571" lon="6.8105">
        <ele>578</ele>
        <time>2020-08-16T16:30:38Z</time>
      </trkpt>
      <trkpt lat="47.84575" lon="6.81054">
        <ele>577.3</ele>
        <time>2020-08-16T16:30:42Z</time>
      </trkpt>
      <trkpt lat="47.8458" lon="6.81058">
        <ele>576.7</ele>
        <time>2020-08-16T16:30:46Z</time>
      </trkpt>
      <trkpt lat="47.84585" lon="6.81061">
        <ele>576.1</ele>
        <time>2020-08-16T16:30:50Z</time>
      </trkpt>
      <trkpt lat="47.8459" lon="6.8106">
        <ele>575.4</ele>
        <time>2020-08-16T16:30:54Z</time>
      </trkpt>
      <trkpt lat="47.84595" lon="6.81058">
        <ele>574.6</ele>
        <time>2020-08-16T16:30:59Z</time>
      </trkpt>
      <trkpt lat="47.84599" lon="6.81054">
        <ele>573.6</ele>
        <time>2020-08-16T16:31:04Z</time>
      </trkpt>
      <trkpt lat="47.84605" lon="6.81051">
        <ele>572.6</ele>
        <time>2020-08-16T16:31:09Z</time>
      </trkpt>
      <trkpt lat="47.84609" lon="6.81047">
        <ele>571.8</ele>
        <time>2020-08-16T16:31:13Z</time>
      </trkpt>
      <trkpt lat="47.84613" lon="6.81043">
        <ele>571</ele>
        <time>2020-08-16T16:31:18Z</time>
      </trkpt>
      <trkpt lat="47.84618" lon="6.81042">
        <ele>570.3</ele>
        <time>2020-08-16T16:31:26Z</time>
      </trkpt>
      <trkpt lat="47.84622" lon="6.81042">
        <ele>570.6</ele>
        <time>2020-08-16T16:31:32Z</time>
      </trkpt>
      <trkpt lat="47.84627" lon="6.8104">
        <ele>570.7</ele>
        <time>2020-08-16T16:31:39Z</time>
      </trkpt>
      <trkpt lat="47.84623" lon="6.81035">
        <ele>570.8</ele>
        <time>2020-08-16T16:32:02Z</time>
      </trkpt>
      <trkpt lat="47.84627" lon="6.81034">
        <ele>572.4</ele>
        <time>2020-08-16T16:32:43Z</time>
      </trkpt>
      <trkpt lat="47.84633" lon="6.81033">
        <ele>572.5</ele>
        <time>2020-08-16T16:32:46Z</time>
      </trkpt>
      <trkpt lat="47.84637" lon="6.81033">
        <ele>572.5</ele>
        <time>2020-08-16T16:32:49Z</time>
      </trkpt>
      <trkpt lat="47.84642" lon="6.81032">
        <ele>572.6</ele>
        <time>2020-08-16T16:32:53Z</time>
      </trkpt>
      <trkpt lat="47.84647" lon="6.81032">
        <ele>572.8</ele>
        <time>2020-08-16T16:32:58Z</time>
      </trkpt>
      <trkpt lat="47.84652" lon="6.81033">
        <ele>573.1</ele>
        <time>2020-08-16T16:33:03Z</time>
      </trkpt>
      <trkpt lat="47.84657" lon="6.81033">
        <ele>573.3</ele>
        <time>2020-08-16T16:33:07Z</time>
      </trkpt>
      <trkpt lat="47.84662" lon="6.81034">
        <ele>573.1</ele>
        <time>2020-08-16T16:33:11Z</time>
      </trkpt>
      <trkpt lat="47.84666" lon="6.81032">
        <ele>572.7</ele>
        <time>2020-08-16T16:33:16Z</time>
      </trkpt>
      <trkpt lat="47.8467" lon="6.81028">
        <ele>572.4</ele>
        <time>2020-08-16T16:33:20Z</time>
      </trkpt>
      <trkpt lat="47.84675" lon="6.81026">
        <ele>572.3</ele>
        <time>2020-08-16T16:33:25Z</time>
      </trkpt>
      <trkpt lat="47.8468" lon="6.81026">
        <ele>572.3</ele>
        <time>2020-08-16T16:33:30Z</time>
      </trkpt>
      <trkpt lat="47.84685" lon="6.81025">
        <ele>572.4</ele>
        <time>2020-08-16T16:33:35Z</time>
      </trkpt>
      <trkpt lat="47.84689" lon="6.81023">
        <ele>572.5</ele>
        <time>2020-08-16T16:33:40Z</time>
      </trkpt>
      <trkpt lat="47.84694" lon="6.81022">
        <ele>572.8</ele>
        <time>2020-08-16T16:33:44Z</time>
      </trkpt>
      <trkpt lat="47.847" lon="6.81022">
        <ele>573</ele>
        <time>2020-08-16T16:33:48Z</time>
      </trkpt>
      <trkpt lat="47.84704" lon="6.8102">
        <ele>573.2</ele>
        <time>2020-08-16T16:33:54Z</time>
      </trkpt>
      <trkpt lat="47.84709" lon="6.81019">
        <ele>573.5</ele>
        <time>2020-08-16T16:34:05Z</time>
      </trkpt>
      <trkpt lat="47.84713" lon="6.81021">
        <ele>573.6</ele>
        <time>2020-08-16T16:34:09Z</time>
      </trkpt>
      <trkpt lat="47.84719" lon="6.81022">
        <ele>573.8</ele>
        <time>2020-08-16T16:34:13Z</time>
      </trkpt>
      <trkpt lat="47.84724" lon="6.81022">
        <ele>573.9</ele>
        <time>2020-08-16T16:34:16Z</time>
      </trkpt>
      <trkpt lat="47.84729" lon="6.81023">
        <ele>574</ele>
        <time>2020-08-16T16:34:20Z</time>
      </trkpt>
      <trkpt lat="47.84734" lon="6.81025">
        <ele>574.1</ele>
        <time>2020-08-16T16:34:24Z</time>
      </trkpt>
      <trkpt lat="47.84739" lon="6.81025">
        <ele>574.1</ele>
        <time>2020-08-16T16:34:29Z</time>
      </trkpt>
      <trkpt lat="47.84743" lon="6.81025">
        <ele>574.1</ele>
        <time>2020-08-16T16:34:33Z</time>
      </trkpt>
      <trkpt lat="47.84749" lon="6.81026">
        <ele>574.5</ele>
        <time>2020-08-16T16:34:37Z</time>
      </trkpt>
      <trkpt lat="47.84754" lon="6.81027">
        <ele>574.7</ele>
        <time>2020-08-16T16:34:42Z</time>
      </trkpt>
      <trkpt lat="47.8476" lon="6.81027">
        <ele>574.8</ele>
        <time>2020-08-16T16:34:46Z</time>
      </trkpt>
      <trkpt lat="47.84766" lon="6.81027">
        <ele>574.8</ele>
        <time>2020-08-16T16:34:50Z</time>
      </trkpt>
      <trkpt lat="47.84771" lon="6.81027">
        <ele>574.9</ele>
        <time>2020-08-16T16:34:54Z</time>
      </trkpt>
      <trkpt lat="47.84776" lon="6.81025">
        <ele>574.9</ele>
        <time>2020-08-16T16:34:58Z</time>
      </trkpt>
      <trkpt lat="47.84781" lon="6.81022">
        <ele>574.8</ele>
        <time>2020-08-16T16:35:04Z</time>
      </trkpt>
      <trkpt lat="47.84785" lon="6.8102">
        <ele>574.5</ele>
        <time>2020-08-16T16:35:09Z</time>
      </trkpt>
      <trkpt lat="47.84789" lon="6.81017">
        <ele>574.1</ele>
        <time>2020-08-16T16:35:13Z</time>
      </trkpt>
      <trkpt lat="47.84794" lon="6.81015">
        <ele>573.7</ele>
        <time>2020-08-16T16:35:18Z</time>
      </trkpt>
      <trkpt lat="47.84799" lon="6.81014">
        <ele>573.6</ele>
        <time>2020-08-16T16:35:23Z</time>
      </trkpt>
      <trkpt lat="47.84804" lon="6.81013">
        <ele>573.7</ele>
        <time>2020-08-16T16:35:32Z</time>
      </trkpt>
      <trkpt lat="47.84808" lon="6.8101">
        <ele>574.1</ele>
        <time>2020-08-16T16:35:39Z</time>
      </trkpt>
      <trkpt lat="47.84812" lon="6.81006">
        <ele>574.5</ele>
        <time>2020-08-16T16:35:46Z</time>
      </trkpt>
      <trkpt lat="47.84814" lon="6.81">
        <ele>574.8</ele>
        <time>2020-08-16T16:35:57Z</time>
      </trkpt>
      <trkpt lat="47.84814" lon="6.80993">
        <ele>575.1</ele>
        <time>2020-08-16T16:36:03Z</time>
      </trkpt>
      <trkpt lat="47.84815" lon="6.81001">
        <ele>575.3</ele>
        <time>2020-08-16T16:36:13Z</time>
      </trkpt>
      <trkpt lat="47.84817" lon="6.81008">
        <ele>575.5</ele>
        <time>2020-08-16T16:36:17Z</time>
      </trkpt>
      <trkpt lat="47.84822" lon="6.8101">
        <ele>575.3</ele>
        <time>2020-08-16T16:36:21Z</time>
      </trkpt>
      <trkpt lat="47.84827" lon="6.81009">
        <ele>575.2</ele>
        <time>2020-08-16T16:36:27Z</time>
      </trkpt>
      <trkpt lat="47.84832" lon="6.81009">
        <ele>575</ele>
        <time>2020-08-16T16:36:33Z</time>
      </trkpt>
      <trkpt lat="47.84838" lon="6.81009">
        <ele>575</ele>
        <time>2020-08-16T16:36:40Z</time>
      </trkpt>
      <trkpt lat="47.84842" lon="6.81009">
        <ele>574.6</ele>
        <time>2020-08-16T16:36:44Z</time>
      </trkpt>
      <trkpt lat="47.84847" lon="6.81011">
        <ele>574.1</ele>
        <time>2020-08-16T16:36:49Z</time>
      </trkpt>
      <trkpt lat="47.84852" lon="6.81013">
        <ele>573.5</ele>
        <time>2020-08-16T16:36:56Z</time>
      </trkpt>
      <trkpt lat="47.84856" lon="6.81015">
        <ele>573.2</ele>
        <time>2020-08-16T16:37:01Z</time>
      </trkpt>
      <trkpt lat="47.84861" lon="6.81017">
        <ele>573</ele>
        <time>2020-08-16T16:37:06Z</time>
      </trkpt>
      <trkpt lat="47.84865" lon="6.81019">
        <ele>572.5</ele>
        <time>2020-08-16T16:37:11Z</time>
      </trkpt>
      <trkpt lat="47.84871" lon="6.8102">
        <ele>571.7</ele>
        <time>2020-08-16T16:37:17Z</time>
      </trkpt>
      <trkpt lat="47.84876" lon="6.81023">
        <ele>570.9</ele>
        <time>2020-08-16T16:37:22Z</time>
      </trkpt>
      <trkpt lat="47.84881" lon="6.81026">
        <ele>570.1</ele>
        <time>2020-08-16T16:37:27Z</time>
      </trkpt>
      <trkpt lat="47.84884" lon="6.81031">
        <ele>569.6</ele>
        <time>2020-08-16T16:37:31Z</time>
      </trkpt>
      <trkpt lat="47.84889" lon="6.81032">
        <ele>569</ele>
        <time>2020-08-16T16:37:36Z</time>
      </trkpt>
      <trkpt lat="47.84894" lon="6.81035">
        <ele>568.4</ele>
        <time>2020-08-16T16:37:43Z</time>
      </trkpt>
      <trkpt lat="47.84899" lon="6.81038">
        <ele>567.7</ele>
        <time>2020-08-16T16:37:50Z</time>
      </trkpt>
      <trkpt lat="47.84903" lon="6.81038">
        <ele>567.2</ele>
        <time>2020-08-16T16:37:54Z</time>
      </trkpt>
      <trkpt lat="47.84908" lon="6.81038">
        <ele>566.9</ele>
        <time>2020-08-16T16:37:57Z</time>
      </trkpt>
      <trkpt lat="47.84913" lon="6.81039">
        <ele>566.4</ele>
        <time>2020-08-16T16:38:00Z</time>
      </trkpt>
      <trkpt lat="47.84918" lon="6.81039">
        <ele>565.8</ele>
        <time>2020-08-16T16:38:04Z</time>
      </trkpt>
      <trkpt lat="47.84923" lon="6.81037">
        <ele>565.2</ele>
        <time>2020-08-16T16:38:09Z</time>
      </trkpt>
      <trkpt lat="47.84927" lon="6.81034">
        <ele>564.8</ele>
        <time>2020-08-16T16:38:14Z</time>
      </trkpt>
      <trkpt lat="47.84932" lon="6.81032">
        <ele>564.4</ele>
        <time>2020-08-16T16:38:19Z</time>
      </trkpt>
      <trkpt lat="47.84937" lon="6.8103">
        <ele>564</ele>
        <time>2020-08-16T16:38:23Z</time>
      </trkpt>
      <trkpt lat="47.84942" lon="6.81027">
        <ele>563.2</ele>
        <time>2020-08-16T16:38:29Z</time>
      </trkpt>
      <trkpt lat="47.84947" lon="6.81027">
        <ele>562.5</ele>
        <time>2020-08-16T16:38:34Z</time>
      </trkpt>
      <trkpt lat="47.84952" lon="6.81028">
        <ele>562</ele>
        <time>2020-08-16T16:38:39Z</time>
      </trkpt>
      <trkpt lat="47.84957" lon="6.81028">
        <ele>561.5</ele>
        <time>2020-08-16T16:38:45Z</time>
      </trkpt>
      <trkpt lat="47.84962" lon="6.81028">
        <ele>561</ele>
        <time>2020-08-16T16:38:50Z</time>
      </trkpt>
      <trkpt lat="47.84967" lon="6.8103">
        <ele>560.4</ele>
        <time>2020-08-16T16:38:55Z</time>
      </trkpt>
      <trkpt lat="47.84972" lon="6.81031">
        <ele>559.7</ele>
        <time>2020-08-16T16:39:00Z</time>
      </trkpt>
      <trkpt lat="47.84977" lon="6.81033">
        <ele>559.1</ele>
        <time>2020-08-16T16:39:04Z</time>
      </trkpt>
      <trkpt lat="47.84981" lon="6.81037">
        <ele>558.5</ele>
        <time>2020-08-16T16:39:08Z</time>
      </trkpt>
      <trkpt lat="47.84986" lon="6.81038">
        <ele>557.9</ele>
        <time>2020-08-16T16:39:19Z</time>
      </trkpt>
      <trkpt lat="47.84991" lon="6.8104">
        <ele>557.8</ele>
        <time>2020-08-16T16:39:24Z</time>
      </trkpt>
      <trkpt lat="47.84995" lon="6.81043">
        <ele>557.8</ele>
        <time>2020-08-16T16:39:29Z</time>
      </trkpt>
      <trkpt lat="47.85" lon="6.81046">
        <ele>557.7</ele>
        <time>2020-08-16T16:39:34Z</time>
      </trkpt>
      <trkpt lat="47.85004" lon="6.81049">
        <ele>558.1</ele>
        <time>2020-08-16T16:40:01Z</time>
      </trkpt>
      <trkpt lat="47.85009" lon="6.81052">
        <ele>558</ele>
        <time>2020-08-16T16:40:10Z</time>
      </trkpt>
      <trkpt lat="47.85012" lon="6.81056">
        <ele>557.4</ele>
        <time>2020-08-16T16:40:52Z</time>
      </trkpt>
      <trkpt lat="47.85016" lon="6.8106">
        <ele>557</ele>
        <time>2020-08-16T16:40:56Z</time>
      </trkpt>
      <trkpt lat="47.8502" lon="6.81064">
        <ele>556.7</ele>
        <time>2020-08-16T16:41:01Z</time>
      </trkpt>
      <trkpt lat="47.85024" lon="6.81067">
        <ele>556.7</ele>
        <time>2020-08-16T16:41:07Z</time>
      </trkpt>
      <trkpt lat="47.85029" lon="6.81071">
        <ele>557.1</ele>
        <time>2020-08-16T16:41:17Z</time>
      </trkpt>
      <trkpt lat="47.85033" lon="6.81074">
        <ele>555.8</ele>
        <time>2020-08-16T16:41:28Z</time>
      </trkpt>
      <trkpt lat="47.85037" lon="6.81077">
        <ele>555.3</ele>
        <time>2020-08-16T16:41:34Z</time>
      </trkpt>
      <trkpt lat="47.8504" lon="6.81082">
        <ele>555.6</ele>
        <time>2020-08-16T16:41:58Z</time>
      </trkpt>
      <trkpt lat="47.85044" lon="6.81088">
        <ele>556.9</ele>
        <time>2020-08-16T16:42:05Z</time>
      </trkpt>
      <trkpt lat="47.85049" lon="6.81091">
        <ele>558.1</ele>
        <time>2020-08-16T16:42:13Z</time>
      </trkpt>
      <trkpt lat="47.85052" lon="6.81095">
        <ele>558.8</ele>
        <time>2020-08-16T16:42:18Z</time>
      </trkpt>
      <trkpt lat="47.85056" lon="6.811">
        <ele>559.2</ele>
        <time>2020-08-16T16:42:22Z</time>
      </trkpt>
      <trkpt lat="47.8506" lon="6.81105">
        <ele>558.6</ele>
        <time>2020-08-16T16:42:42Z</time>
      </trkpt>
      <trkpt lat="47.85063" lon="6.81109">
        <ele>559</ele>
        <time>2020-08-16T16:42:46Z</time>
      </trkpt>
      <trkpt lat="47.85068" lon="6.81114">
        <ele>559.2</ele>
        <time>2020-08-16T16:42:51Z</time>
      </trkpt>
      <trkpt lat="47.85072" lon="6.81119">
        <ele>559.1</ele>
        <time>2020-08-16T16:42:56Z</time>
      </trkpt>
      <trkpt lat="47.85074" lon="6.81126">
        <ele>559</ele>
        <time>2020-08-16T16:43:02Z</time>
      </trkpt>
      <trkpt lat="47.85078" lon="6.81131">
        <ele>559</ele>
        <time>2020-08-16T16:43:06Z</time>
      </trkpt>
      <trkpt lat="47.85082" lon="6.81134">
        <ele>559</ele>
        <time>2020-08-16T16:43:09Z</time>
      </trkpt>
      <trkpt lat="47.85087" lon="6.81137">
        <ele>558.8</ele>
        <time>2020-08-16T16:43:13Z</time>
      </trkpt>
      <trkpt lat="47.85091" lon="6.81138">
        <ele>558.8</ele>
        <time>2020-08-16T16:43:20Z</time>
      </trkpt>
      <trkpt lat="47.85096" lon="6.81142">
        <ele>557.8</ele>
        <time>2020-08-16T16:43:32Z</time>
      </trkpt>
      <trkpt lat="47.851" lon="6.81146">
        <ele>556.7</ele>
        <time>2020-08-16T16:43:39Z</time>
      </trkpt>
      <trkpt lat="47.85103" lon="6.81151">
        <ele>555.8</ele>
        <time>2020-08-16T16:43:45Z</time>
      </trkpt>
      <trkpt lat="47.85107" lon="6.81155">
        <ele>554.4</ele>
        <time>2020-08-16T16:43:52Z</time>
      </trkpt>
      <trkpt lat="47.85111" lon="6.8116">
        <ele>553.5</ele>
        <time>2020-08-16T16:43:57Z</time>
      </trkpt>
      <trkpt lat="47.85115" lon="6.81164">
        <ele>552.6</ele>
        <time>2020-08-16T16:44:03Z</time>
      </trkpt>
      <trkpt lat="47.85119" lon="6.81168">
        <ele>552</ele>
        <time>2020-08-16T16:44:09Z</time>
      </trkpt>
      <trkpt lat="47.85123" lon="6.81172">
        <ele>551.7</ele>
        <time>2020-08-16T16:44:13Z</time>
      </trkpt>
      <trkpt lat="47.85127" lon="6.81177">
        <ele>551.4</ele>
        <time>2020-08-16T16:44:17Z</time>
      </trkpt>
      <trkpt lat="47.8513" lon="6.81182">
        <ele>551.2</ele>
        <time>2020-08-16T16:44:21Z</time>
      </trkpt>
      <trkpt lat="47.85135" lon="6.81187">
        <ele>551.1</ele>
        <time>2020-08-16T16:44:25Z</time>
      </trkpt>
      <trkpt lat="47.85138" lon="6.81191">
        <ele>551</ele>
        <time>2020-08-16T16:44:29Z</time>
      </trkpt>
      <trkpt lat="47.85142" lon="6.81196">
        <ele>550.8</ele>
        <time>2020-08-16T16:44:34Z</time>
      </trkpt>
      <trkpt lat="47.85145" lon="6.81201">
        <ele>550.7</ele>
        <time>2020-08-16T16:44:39Z</time>
      </trkpt>
      <trkpt lat="47.85149" lon="6.81207">
        <ele>550.8</ele>
        <time>2020-08-16T16:44:45Z</time>
      </trkpt>
      <trkpt lat="47.85152" lon="6.81212">
        <ele>551</ele>
        <time>2020-08-16T16:44:54Z</time>
      </trkpt>
      <trkpt lat="47.85158" lon="6.81213">
        <ele>550.6</ele>
        <time>2020-08-16T16:45:25Z</time>
      </trkpt>
      <trkpt lat="47.85163" lon="6.81214">
        <ele>550.3</ele>
        <time>2020-08-16T16:45:31Z</time>
      </trkpt>
      <trkpt lat="47.85166" lon="6.81221">
        <ele>552.2</ele>
        <time>2020-08-16T16:46:03Z</time>
      </trkpt>
      <trkpt lat="47.85169" lon="6.81226">
        <ele>552.3</ele>
        <time>2020-08-16T16:46:07Z</time>
      </trkpt>
      <trkpt lat="47.85171" lon="6.81232">
        <ele>552.1</ele>
        <time>2020-08-16T16:46:14Z</time>
      </trkpt>
      <trkpt lat="47.85175" lon="6.81237">
        <ele>551.9</ele>
        <time>2020-08-16T16:46:19Z</time>
      </trkpt>
      <trkpt lat="47.85178" lon="6.81243">
        <ele>551.8</ele>
        <time>2020-08-16T16:46:24Z</time>
      </trkpt>
      <trkpt lat="47.85182" lon="6.81248">
        <ele>551.5</ele>
        <time>2020-08-16T16:46:29Z</time>
      </trkpt>
      <trkpt lat="47.85185" lon="6.81253">
        <ele>551.2</ele>
        <time>2020-08-16T16:46:34Z</time>
      </trkpt>
      <trkpt lat="47.85188" lon="6.81258">
        <ele>550.8</ele>
        <time>2020-08-16T16:46:39Z</time>
      </trkpt>
      <trkpt lat="47.85191" lon="6.81264">
        <ele>550.6</ele>
        <time>2020-08-16T16:46:44Z</time>
      </trkpt>
      <trkpt lat="47.85195" lon="6.81268">
        <ele>550.4</ele>
        <time>2020-08-16T16:46:49Z</time>
      </trkpt>
      <trkpt lat="47.85199" lon="6.81272">
        <ele>550</ele>
        <time>2020-08-16T16:46:56Z</time>
      </trkpt>
      <trkpt lat="47.85203" lon="6.81274">
        <ele>549.7</ele>
        <time>2020-08-16T16:47:03Z</time>
      </trkpt>
      <trkpt lat="47.85206" lon="6.81281">
        <ele>549.6</ele>
        <time>2020-08-16T16:47:17Z</time>
      </trkpt>
      <trkpt lat="47.85208" lon="6.81287">
        <ele>550.2</ele>
        <time>2020-08-16T16:47:20Z</time>
      </trkpt>
      <trkpt lat="47.85212" lon="6.81291">
        <ele>551.1</ele>
        <time>2020-08-16T16:47:25Z</time>
      </trkpt>
      <trkpt lat="47.85215" lon="6.81296">
        <ele>552.1</ele>
        <time>2020-08-16T16:47:30Z</time>
      </trkpt>
      <trkpt lat="47.85218" lon="6.81303">
        <ele>553.3</ele>
        <time>2020-08-16T16:47:35Z</time>
      </trkpt>
      <trkpt lat="47.85221" lon="6.81309">
        <ele>554.4</ele>
        <time>2020-08-16T16:47:39Z</time>
      </trkpt>
      <trkpt lat="47.85227" lon="6.81312">
        <ele>555.5</ele>
        <time>2020-08-16T16:47:44Z</time>
      </trkpt>
      <trkpt lat="47.85231" lon="6.81315">
        <ele>556.4</ele>
        <time>2020-08-16T16:47:49Z</time>
      </trkpt>
      <trkpt lat="47.85234" lon="6.81321">
        <ele>557.3</ele>
        <time>2020-08-16T16:47:56Z</time>
      </trkpt>
      <trkpt lat="47.85236" lon="6.81329">
        <ele>557.8</ele>
        <time>2020-08-16T16:48:00Z</time>
      </trkpt>
      <trkpt lat="47.85236" lon="6.81336">
        <ele>558.9</ele>
        <time>2020-08-16T16:48:07Z</time>
      </trkpt>
      <trkpt lat="47.85233" lon="6.8134">
        <ele>560</ele>
        <time>2020-08-16T16:48:12Z</time>
      </trkpt>
      <trkpt lat="47.85232" lon="6.81347">
        <ele>560.9</ele>
        <time>2020-08-16T16:48:17Z</time>
      </trkpt>
      <trkpt lat="47.85236" lon="6.8135">
        <ele>561.4</ele>
        <time>2020-08-16T16:48:24Z</time>
      </trkpt>
      <trkpt lat="47.8524" lon="6.81355">
        <ele>561.4</ele>
        <time>2020-08-16T16:48:29Z</time>
      </trkpt>
      <trkpt lat="47.85241" lon="6.81361">
        <ele>561.4</ele>
        <time>2020-08-16T16:48:34Z</time>
      </trkpt>
      <trkpt lat="47.85243" lon="6.81368">
        <ele>561.4</ele>
        <time>2020-08-16T16:48:39Z</time>
      </trkpt>
      <trkpt lat="47.85244" lon="6.81375">
        <ele>561.3</ele>
        <time>2020-08-16T16:48:45Z</time>
      </trkpt>
      <trkpt lat="47.85245" lon="6.81382">
        <ele>561.4</ele>
        <time>2020-08-16T16:48:50Z</time>
      </trkpt>
      <trkpt lat="47.85246" lon="6.81389">
        <ele>561.4</ele>
        <time>2020-08-16T16:48:55Z</time>
      </trkpt>
      <trkpt lat="47.85246" lon="6.81396">
        <ele>560.2</ele>
        <time>2020-08-16T16:49:14Z</time>
      </trkpt>
      <trkpt lat="47.85247" lon="6.81403">
        <ele>559.9</ele>
        <time>2020-08-16T16:49:20Z</time>
      </trkpt>
      <trkpt lat="47.85249" lon="6.81409">
        <ele>559.8</ele>
        <time>2020-08-16T16:49:25Z</time>
      </trkpt>
      <trkpt lat="47.85251" lon="6.81415">
        <ele>559.7</ele>
        <time>2020-08-16T16:49:29Z</time>
      </trkpt>
      <trkpt lat="47.85254" lon="6.81421">
        <ele>559.6</ele>
        <time>2020-08-16T16:49:34Z</time>
      </trkpt>
      <trkpt lat="47.85257" lon="6.81426">
        <ele>559.5</ele>
        <time>2020-08-16T16:49:39Z</time>
      </trkpt>
      <trkpt lat="47.85261" lon="6.81431">
        <ele>559.2</ele>
        <time>2020-08-16T16:49:44Z</time>
      </trkpt>
      <trkpt lat="47.85264" lon="6.81436">
        <ele>558.9</ele>
        <time>2020-08-16T16:49:48Z</time>
      </trkpt>
      <trkpt lat="47.85268" lon="6.8144">
        <ele>558.8</ele>
        <time>2020-08-16T16:49:53Z</time>
      </trkpt>
      <trkpt lat="47.85272" lon="6.81444">
        <ele>558.7</ele>
        <time>2020-08-16T16:49:57Z</time>
      </trkpt>
      <trkpt lat="47.85275" lon="6.8145">
        <ele>558.7</ele>
        <time>2020-08-16T16:50:03Z</time>
      </trkpt>
      <trkpt lat="47.8528" lon="6.81453">
        <ele>558.9</ele>
        <time>2020-08-16T16:50:11Z</time>
      </trkpt>
      <trkpt lat="47.85281" lon="6.8146">
        <ele>558.9</ele>
        <time>2020-08-16T16:50:16Z</time>
      </trkpt>
      <trkpt lat="47.85284" lon="6.81466">
        <ele>558.8</ele>
        <time>2020-08-16T16:50:20Z</time>
      </trkpt>
      <trkpt lat="47.85288" lon="6.81471">
        <ele>558.6</ele>
        <time>2020-08-16T16:50:24Z</time>
      </trkpt>
      <trkpt lat="47.85292" lon="6.81476">
        <ele>558.3</ele>
        <time>2020-08-16T16:50:29Z</time>
      </trkpt>
      <trkpt lat="47.85294" lon="6.81482">
        <ele>557.6</ele>
        <time>2020-08-16T16:50:36Z</time>
      </trkpt>
      <trkpt lat="47.85296" lon="6.81488">
        <ele>556.6</ele>
        <time>2020-08-16T16:50:45Z</time>
      </trkpt>
      <trkpt lat="47.85299" lon="6.81494">
        <ele>555.4</ele>
        <time>2020-08-16T16:50:52Z</time>
      </trkpt>
      <trkpt lat="47.85303" lon="6.81498">
        <ele>554.9</ele>
        <time>2020-08-16T16:50:55Z</time>
      </trkpt>
      <trkpt lat="47.85307" lon="6.81504">
        <ele>553.9</ele>
        <time>2020-08-16T16:51:00Z</time>
      </trkpt>
      <trkpt lat="47.85311" lon="6.81509">
        <ele>552.8</ele>
        <time>2020-08-16T16:51:07Z</time>
      </trkpt>
      <trkpt lat="47.85315" lon="6.81514">
        <ele>552.2</ele>
        <time>2020-08-16T16:51:11Z</time>
      </trkpt>
      <trkpt lat="47.85318" lon="6.8152">
        <ele>551.6</ele>
        <time>2020-08-16T16:51:15Z</time>
      </trkpt>
      <trkpt lat="47.85324" lon="6.81526">
        <ele>551.3</ele>
        <time>2020-08-16T16:51:18Z</time>
      </trkpt>
      <trkpt lat="47.85327" lon="6.81531">
        <ele>551</ele>
        <time>2020-08-16T16:51:21Z</time>
      </trkpt>
      <trkpt lat="47.85331" lon="6.81539">
        <ele>550.4</ele>
        <time>2020-08-16T16:52:37Z</time>
      </trkpt>
      <trkpt lat="47.85335" lon="6.81542">
        <ele>550.5</ele>
        <time>2020-08-16T16:52:40Z</time>
      </trkpt>
      <trkpt lat="47.8534" lon="6.81546">
        <ele>550.4</ele>
        <time>2020-08-16T16:52:44Z</time>
      </trkpt>
      <trkpt lat="47.85344" lon="6.81549">
        <ele>550.3</ele>
        <time>2020-08-16T16:52:48Z</time>
      </trkpt>
      <trkpt lat="47.85344" lon="6.81556">
        <ele>550.4</ele>
        <time>2020-08-16T16:53:13Z</time>
      </trkpt>
      <trkpt lat="47.85347" lon="6.81562">
        <ele>551.8</ele>
        <time>2020-08-16T16:53:31Z</time>
      </trkpt>
      <trkpt lat="47.85349" lon="6.81568">
        <ele>552.7</ele>
        <time>2020-08-16T16:53:47Z</time>
      </trkpt>
      <trkpt lat="47.8535" lon="6.81576">
        <ele>552.9</ele>
        <time>2020-08-16T16:53:53Z</time>
      </trkpt>
      <trkpt lat="47.85351" lon="6.81583">
        <ele>553.1</ele>
        <time>2020-08-16T16:53:58Z</time>
      </trkpt>
      <trkpt lat="47.85352" lon="6.8159">
        <ele>553.5</ele>
        <time>2020-08-16T16:54:05Z</time>
      </trkpt>
      <trkpt lat="47.85353" lon="6.81597">
        <ele>553.8</ele>
        <time>2020-08-16T16:54:10Z</time>
      </trkpt>
      <trkpt lat="47.85353" lon="6.81604">
        <ele>554.1</ele>
        <time>2020-08-16T16:54:14Z</time>
      </trkpt>
      <trkpt lat="47.85353" lon="6.81611">
        <ele>554.3</ele>
        <time>2020-08-16T16:54:19Z</time>
      </trkpt>
      <trkpt lat="47.85354" lon="6.81619">
        <ele>554.4</ele>
        <time>2020-08-16T16:54:25Z</time>
      </trkpt>
      <trkpt lat="47.85355" lon="6.81627">
        <ele>554.6</ele>
        <time>2020-08-16T16:54:30Z</time>
      </trkpt>
      <trkpt lat="47.85356" lon="6.81633">
        <ele>554.6</ele>
        <time>2020-08-16T16:54:35Z</time>
      </trkpt>
      <trkpt lat="47.85359" lon="6.81639">
        <ele>554.5</ele>
        <time>2020-08-16T16:54:42Z</time>
      </trkpt>
      <trkpt lat="47.85363" lon="6.81642">
        <ele>554.3</ele>
        <time>2020-08-16T16:54:56Z</time>
      </trkpt>
      <trkpt lat="47.85368" lon="6.81647">
        <ele>553.9</ele>
        <time>2020-08-16T16:55:01Z</time>
      </trkpt>
      <trkpt lat="47.85372" lon="6.81651">
        <ele>553.4</ele>
        <time>2020-08-16T16:55:06Z</time>
      </trkpt>
      <trkpt lat="47.85375" lon="6.81656">
        <ele>552.9</ele>
        <time>2020-08-16T16:55:15Z</time>
      </trkpt>
      <trkpt lat="47.85378" lon="6.81662">
        <ele>552.6</ele>
        <time>2020-08-16T16:55:22Z</time>
      </trkpt>
      <trkpt lat="47.8538" lon="6.81669">
        <ele>552.5</ele>
        <time>2020-08-16T16:55:28Z</time>
      </trkpt>
      <trkpt lat="47.8538" lon="6.81677">
        <ele>552.3</ele>
        <time>2020-08-16T16:55:33Z</time>
      </trkpt>
      <trkpt lat="47.85381" lon="6.81684">
        <ele>552.1</ele>
        <time>2020-08-16T16:55:40Z</time>
      </trkpt>
      <trkpt lat="47.8538" lon="6.81691">
        <ele>551.8</ele>
        <time>2020-08-16T16:55:49Z</time>
      </trkpt>
      <trkpt lat="47.85377" lon="6.81697">
        <ele>551.5</ele>
        <time>2020-08-16T16:55:56Z</time>
      </trkpt>
      <trkpt lat="47.85377" lon="6.81705">
        <ele>551.3</ele>
        <time>2020-08-16T16:56:01Z</time>
      </trkpt>
      <trkpt lat="47.8538" lon="6.81711">
        <ele>551.2</ele>
        <time>2020-08-16T16:56:05Z</time>
      </trkpt>
      <trkpt lat="47.85384" lon="6.81717">
        <ele>551.1</ele>
        <time>2020-08-16T16:56:08Z</time>
      </trkpt>
      <trkpt lat="47.85388" lon="6.81721">
        <ele>550.9</ele>
        <time>2020-08-16T16:56:11Z</time>
      </trkpt>
      <trkpt lat="47.85395" lon="6.81726">
        <ele>550.9</ele>
        <time>2020-08-16T16:56:14Z</time>
      </trkpt>
      <trkpt lat="47.85399" lon="6.8173">
        <ele>551</ele>
        <time>2020-08-16T16:56:17Z</time>
      </trkpt>
      <trkpt lat="47.85401" lon="6.81736">
        <ele>551.1</ele>
        <time>2020-08-16T16:56:22Z</time>
      </trkpt>
      <trkpt lat="47.85399" lon="6.81743">
        <ele>551.5</ele>
        <time>2020-08-16T16:56:29Z</time>
      </trkpt>
      <trkpt lat="47.85398" lon="6.8175">
        <ele>551.6</ele>
        <time>2020-08-16T16:56:35Z</time>
      </trkpt>
      <trkpt lat="47.854" lon="6.81757">
        <ele>551.7</ele>
        <time>2020-08-16T16:56:40Z</time>
      </trkpt>
      <trkpt lat="47.85402" lon="6.81763">
        <ele>551.7</ele>
        <time>2020-08-16T16:56:45Z</time>
      </trkpt>
      <trkpt lat="47.85405" lon="6.81769">
        <ele>551.5</ele>
        <time>2020-08-16T16:56:50Z</time>
      </trkpt>
      <trkpt lat="47.85407" lon="6.81776">
        <ele>551.3</ele>
        <time>2020-08-16T16:56:56Z</time>
      </trkpt>
      <trkpt lat="47.85409" lon="6.81783">
        <ele>551.1</ele>
        <time>2020-08-16T16:57:01Z</time>
      </trkpt>
      <trkpt lat="47.85411" lon="6.81789">
        <ele>550.8</ele>
        <time>2020-08-16T16:57:05Z</time>
      </trkpt>
      <trkpt lat="47.85414" lon="6.81795">
        <ele>550.6</ele>
        <time>2020-08-16T16:57:10Z</time>
      </trkpt>
      <trkpt lat="47.85417" lon="6.81801">
        <ele>550.4</ele>
        <time>2020-08-16T16:57:16Z</time>
      </trkpt>
      <trkpt lat="47.8542" lon="6.81807">
        <ele>550.4</ele>
        <time>2020-08-16T16:57:21Z</time>
      </trkpt>
      <trkpt lat="47.85423" lon="6.81813">
        <ele>550.4</ele>
        <time>2020-08-16T16:57:25Z</time>
      </trkpt>
      <trkpt lat="47.85425" lon="6.81818">
        <ele>550.3</ele>
        <time>2020-08-16T16:57:29Z</time>
      </trkpt>
      <trkpt lat="47.85429" lon="6.81823">
        <ele>550.2</ele>
        <time>2020-08-16T16:57:33Z</time>
      </trkpt>
      <trkpt lat="47.85434" lon="6.81827">
        <ele>550</ele>
        <time>2020-08-16T16:57:37Z</time>
      </trkpt>
      <trkpt lat="47.85438" lon="6.81831">
        <ele>550</ele>
        <time>2020-08-16T16:57:41Z</time>
      </trkpt>
      <trkpt lat="47.8544" lon="6.81837">
        <ele>550.1</ele>
        <time>2020-08-16T16:57:45Z</time>
      </trkpt>
      <trkpt lat="47.85444" lon="6.81842">
        <ele>550.2</ele>
        <time>2020-08-16T16:57:50Z</time>
      </trkpt>
      <trkpt lat="47.85446" lon="6.81849">
        <ele>550.4</ele>
        <time>2020-08-16T16:57:56Z</time>
      </trkpt>
      <trkpt lat="47.8545" lon="6.81853">
        <ele>550.7</ele>
        <time>2020-08-16T16:58:04Z</time>
      </trkpt>
      <trkpt lat="47.85455" lon="6.81857">
        <ele>550.8</ele>
        <time>2020-08-16T16:58:09Z</time>
      </trkpt>
      <trkpt lat="47.85459" lon="6.81863">
        <ele>550.8</ele>
        <time>2020-08-16T16:58:13Z</time>
      </trkpt>
      <trkpt lat="47.85462" lon="6.81868">
        <ele>550.7</ele>
        <time>2020-08-16T16:58:17Z</time>
      </trkpt>
      <trkpt lat="47.85466" lon="6.81873">
        <ele>550.5</ele>
        <time>2020-08-16T16:58:21Z</time>
      </trkpt>
      <trkpt lat="47.8547" lon="6.81876">
        <ele>550.3</ele>
        <time>2020-08-16T16:58:26Z</time>
      </trkpt>
      <trkpt lat="47.85474" lon="6.81879">
        <ele>550.1</ele>
        <time>2020-08-16T16:58:31Z</time>
      </trkpt>
      <trkpt lat="47.85477" lon="6.81885">
        <ele>549.8</ele>
        <time>2020-08-16T16:58:38Z</time>
      </trkpt>
      <trkpt lat="47.8548" lon="6.81891">
        <ele>549.2</ele>
        <time>2020-08-16T16:58:49Z</time>
      </trkpt>
      <trkpt lat="47.85485" lon="6.81897">
        <ele>548.8</ele>
        <time>2020-08-16T16:58:53Z</time>
      </trkpt>
      <trkpt lat="47.85489" lon="6.81902">
        <ele>548.7</ele>
        <time>2020-08-16T16:58:56Z</time>
      </trkpt>
      <trkpt lat="47.85493" lon="6.81907">
        <ele>548.7</ele>
        <time>2020-08-16T16:58:59Z</time>
      </trkpt>
      <trkpt lat="47.85498" lon="6.81912">
        <ele>548.7</ele>
        <time>2020-08-16T16:59:03Z</time>
      </trkpt>
      <trkpt lat="47.85501" lon="6.81917">
        <ele>548.9</ele>
        <time>2020-08-16T16:59:07Z</time>
      </trkpt>
      <trkpt lat="47.85504" lon="6.81923">
        <ele>549</ele>
        <time>2020-08-16T16:59:11Z</time>
      </trkpt>
      <trkpt lat="47.85507" lon="6.81929">
        <ele>549.2</ele>
        <time>2020-08-16T16:59:15Z</time>
      </trkpt>
      <trkpt lat="47.85511" lon="6.81933">
        <ele>549.3</ele>
        <time>2020-08-16T16:59:19Z</time>
      </trkpt>
      <trkpt lat="47.85515" lon="6.81937">
        <ele>549.3</ele>
        <time>2020-08-16T16:59:24Z</time>
      </trkpt>
      <trkpt lat="47.85519" lon="6.8194">
        <ele>549</ele>
        <time>2020-08-16T16:59:29Z</time>
      </trkpt>
      <trkpt lat="47.85522" lon="6.81945">
        <ele>548.6</ele>
        <time>2020-08-16T16:59:35Z</time>
      </trkpt>
      <trkpt lat="47.85525" lon="6.81949">
        <ele>548.2</ele>
        <time>2020-08-16T16:59:41Z</time>
      </trkpt>
      <trkpt lat="47.8553" lon="6.81952">
        <ele>547.6</ele>
        <time>2020-08-16T16:59:49Z</time>
      </trkpt>
      <trkpt lat="47.85533" lon="6.81958">
        <ele>549.3</ele>
        <time>2020-08-16T17:01:06Z</time>
      </trkpt>
      <trkpt lat="47.85537" lon="6.81963">
        <ele>549.7</ele>
        <time>2020-08-16T17:01:11Z</time>
      </trkpt>
      <trkpt lat="47.85541" lon="6.81967">
        <ele>550.1</ele>
        <time>2020-08-16T17:01:16Z</time>
      </trkpt>
      <trkpt lat="47.85545" lon="6.81972">
        <ele>550.4</ele>
        <time>2020-08-16T17:01:20Z</time>
      </trkpt>
      <trkpt lat="47.85549" lon="6.81974">
        <ele>550.7</ele>
        <time>2020-08-16T17:01:25Z</time>
      </trkpt>
      <trkpt lat="47.85553" lon="6.81971">
        <ele>551.2</ele>
        <time>2020-08-16T17:01:35Z</time>
      </trkpt>
      <trkpt lat="47.85557" lon="6.81968">
        <ele>552</ele>
        <time>2020-08-16T17:02:04Z</time>
      </trkpt>
      <trkpt lat="47.85555" lon="6.81974">
        <ele>552.1</ele>
        <time>2020-08-16T17:03:04Z</time>
      </trkpt>
      <trkpt lat="47.85551" lon="6.81978">
        <ele>552.2</ele>
        <time>2020-08-16T17:03:15Z</time>
      </trkpt>
      <trkpt lat="47.85547" lon="6.81974">
        <ele>552</ele>
        <time>2020-08-16T17:03:31Z</time>
      </trkpt>
      <trkpt lat="47.85543" lon="6.81975">
        <ele>552.2</ele>
        <time>2020-08-16T17:03:39Z</time>
      </trkpt>
      <trkpt lat="47.85538" lon="6.81978">
        <ele>552</ele>
        <time>2020-08-16T17:03:43Z</time>
      </trkpt>
      <trkpt lat="47.85534" lon="6.81984">
        <ele>552</ele>
        <time>2020-08-16T17:03:47Z</time>
      </trkpt>
      <trkpt lat="47.85531" lon="6.8199">
        <ele>552</ele>
        <time>2020-08-16T17:03:50Z</time>
      </trkpt>
      <trkpt lat="47.85529" lon="6.81997">
        <ele>552.1</ele>
        <time>2020-08-16T17:03:54Z</time>
      </trkpt>
      <trkpt lat="47.8553" lon="6.82003">
        <ele>552.1</ele>
        <time>2020-08-16T17:03:58Z</time>
      </trkpt>
      <trkpt lat="47.85532" lon="6.8201">
        <ele>552</ele>
        <time>2020-08-16T17:04:02Z</time>
      </trkpt>
      <trkpt lat="47.85532" lon="6.82017">
        <ele>552.1</ele>
        <time>2020-08-16T17:04:07Z</time>
      </trkpt>
      <trkpt lat="47.85532" lon="6.82024">
        <ele>552.2</ele>
        <time>2020-08-16T17:04:12Z</time>
      </trkpt>
      <trkpt lat="47.85532" lon="6.82032">
        <ele>552.4</ele>
        <time>2020-08-16T17:04:17Z</time>
      </trkpt>
      <trkpt lat="47.85532" lon="6.82038">
        <ele>552.6</ele>
        <time>2020-08-16T17:04:22Z</time>
      </trkpt>
      <trkpt lat="47.85532" lon="6.82046">
        <ele>552.8</ele>
        <time>2020-08-16T17:04:27Z</time>
      </trkpt>
      <trkpt lat="47.85531" lon="6.82054">
        <ele>553.3</ele>
        <time>2020-08-16T17:04:32Z</time>
      </trkpt>
      <trkpt lat="47.85531" lon="6.82061">
        <ele>553.9</ele>
        <time>2020-08-16T17:04:36Z</time>
      </trkpt>
      <trkpt lat="47.8553" lon="6.82069">
        <ele>554.6</ele>
        <time>2020-08-16T17:04:41Z</time>
      </trkpt>
      <trkpt lat="47.85529" lon="6.82076">
        <ele>555.4</ele>
        <time>2020-08-16T17:04:46Z</time>
      </trkpt>
      <trkpt lat="47.85529" lon="6.82084">
        <ele>556</ele>
        <time>2020-08-16T17:04:51Z</time>
      </trkpt>
      <trkpt lat="47.85529" lon="6.82091">
        <ele>556.3</ele>
        <time>2020-08-16T17:04:55Z</time>
      </trkpt>
      <trkpt lat="47.8553" lon="6.82098">
        <ele>556.5</ele>
        <time>2020-08-16T17:04:59Z</time>
      </trkpt>
      <trkpt lat="47.85531" lon="6.82106">
        <ele>556.8</ele>
        <time>2020-08-16T17:05:04Z</time>
      </trkpt>
      <trkpt lat="47.85531" lon="6.82114">
        <ele>557.1</ele>
        <time>2020-08-16T17:05:09Z</time>
      </trkpt>
      <trkpt lat="47.85531" lon="6.8212">
        <ele>557.3</ele>
        <time>2020-08-16T17:05:14Z</time>
      </trkpt>
      <trkpt lat="47.85534" lon="6.82127">
        <ele>557.5</ele>
        <time>2020-08-16T17:05:19Z</time>
      </trkpt>
      <trkpt lat="47.85536" lon="6.82134">
        <ele>557.6</ele>
        <time>2020-08-16T17:05:23Z</time>
      </trkpt>
      <trkpt lat="47.85537" lon="6.82141">
        <ele>558</ele>
        <time>2020-08-16T17:05:30Z</time>
      </trkpt>
      <trkpt lat="47.85538" lon="6.82148">
        <ele>558.3</ele>
        <time>2020-08-16T17:05:36Z</time>
      </trkpt>
      <trkpt lat="47.85539" lon="6.82154">
        <ele>558.9</ele>
        <time>2020-08-16T17:05:41Z</time>
      </trkpt>
      <trkpt lat="47.8554" lon="6.82162">
        <ele>559.5</ele>
        <time>2020-08-16T17:05:47Z</time>
      </trkpt>
      <trkpt lat="47.85541" lon="6.82169">
        <ele>559.8</ele>
        <time>2020-08-16T17:05:52Z</time>
      </trkpt>
      <trkpt lat="47.85541" lon="6.82178">
        <ele>560</ele>
        <time>2020-08-16T17:05:57Z</time>
      </trkpt>
      <trkpt lat="47.85539" lon="6.82185">
        <ele>560.3</ele>
        <time>2020-08-16T17:06:01Z</time>
      </trkpt>
      <trkpt lat="47.85538" lon="6.82193">
        <ele>560.6</ele>
        <time>2020-08-16T17:06:06Z</time>
      </trkpt>
      <trkpt lat="47.85538" lon="6.822">
        <ele>561</ele>
        <time>2020-08-16T17:06:11Z</time>
      </trkpt>
      <trkpt lat="47.85537" lon="6.82208">
        <ele>561.3</ele>
        <time>2020-08-16T17:06:17Z</time>
      </trkpt>
      <trkpt lat="47.85536" lon="6.82215">
        <ele>561.6</ele>
        <time>2020-08-16T17:06:23Z</time>
      </trkpt>
      <trkpt lat="47.85536" lon="6.82223">
        <ele>561.7</ele>
        <time>2020-08-16T17:06:28Z</time>
      </trkpt>
      <trkpt lat="47.85536" lon="6.82232">
        <ele>561.7</ele>
        <time>2020-08-16T17:06:33Z</time>
      </trkpt>
      <trkpt lat="47.85537" lon="6.82239">
        <ele>561.6</ele>
        <time>2020-08-16T17:06:37Z</time>
      </trkpt>
      <trkpt lat="47.85538" lon="6.82246">
        <ele>561.6</ele>
        <time>2020-08-16T17:06:41Z</time>
      </trkpt>
      <trkpt lat="47.8554" lon="6.82253">
        <ele>561.6</ele>
        <time>2020-08-16T17:06:45Z</time>
      </trkpt>
      <trkpt lat="47.85542" lon="6.8226">
        <ele>561.4</ele>
        <time>2020-08-16T17:06:49Z</time>
      </trkpt>
      <trkpt lat="47.85546" lon="6.82265">
        <ele>561.1</ele>
        <time>2020-08-16T17:06:53Z</time>
      </trkpt>
      <trkpt lat="47.8555" lon="6.8227">
        <ele>560.9</ele>
        <time>2020-08-16T17:06:57Z</time>
      </trkpt>
      <trkpt lat="47.85554" lon="6.82274">
        <ele>561.2</ele>
        <time>2020-08-16T17:07:06Z</time>
      </trkpt>
      <trkpt lat="47.85559" lon="6.82276">
        <ele>561.7</ele>
        <time>2020-08-16T17:07:13Z</time>
      </trkpt>
      <trkpt lat="47.85563" lon="6.82274">
        <ele>562.6</ele>
        <time>2020-08-16T17:07:24Z</time>
      </trkpt>
      <trkpt lat="47.85568" lon="6.82273">
        <ele>562.9</ele>
        <time>2020-08-16T17:07:29Z</time>
      </trkpt>
      <trkpt lat="47.85573" lon="6.82274">
        <ele>563</ele>
        <time>2020-08-16T17:07:32Z</time>
      </trkpt>
      <trkpt lat="47.85578" lon="6.82275">
        <ele>563</ele>
        <time>2020-08-16T17:07:35Z</time>
      </trkpt>
      <trkpt lat="47.85583" lon="6.82276">
        <ele>563</ele>
        <time>2020-08-16T17:07:38Z</time>
      </trkpt>
      <trkpt lat="47.85588" lon="6.82279">
        <ele>562.9</ele>
        <time>2020-08-16T17:07:41Z</time>
      </trkpt>
      <trkpt lat="47.85593" lon="6.82281">
        <ele>562.8</ele>
        <time>2020-08-16T17:07:44Z</time>
      </trkpt>
      <trkpt lat="47.85597" lon="6.82282">
        <ele>562.4</ele>
        <time>2020-08-16T17:07:48Z</time>
      </trkpt>
      <trkpt lat="47.85602" lon="6.82283">
        <ele>561.9</ele>
        <time>2020-08-16T17:07:52Z</time>
      </trkpt>
      <trkpt lat="47.85607" lon="6.82284">
        <ele>560.8</ele>
        <time>2020-08-16T17:07:57Z</time>
      </trkpt>
      <trkpt lat="47.85612" lon="6.82284">
        <ele>559.4</ele>
        <time>2020-08-16T17:08:02Z</time>
      </trkpt>
      <trkpt lat="47.85616" lon="6.82285">
        <ele>558.4</ele>
        <time>2020-08-16T17:08:06Z</time>
      </trkpt>
      <trkpt lat="47.85621" lon="6.82286">
        <ele>557.6</ele>
        <time>2020-08-16T17:08:10Z</time>
      </trkpt>
      <trkpt lat="47.85626" lon="6.82287">
        <ele>556.9</ele>
        <time>2020-08-16T17:08:14Z</time>
      </trkpt>
      <trkpt lat="47.85631" lon="6.8229">
        <ele>555.8</ele>
        <time>2020-08-16T17:08:18Z</time>
      </trkpt>
      <trkpt lat="47.85636" lon="6.82291">
        <ele>555</ele>
        <time>2020-08-16T17:08:22Z</time>
      </trkpt>
      <trkpt lat="47.8564" lon="6.82293">
        <ele>554.4</ele>
        <time>2020-08-16T17:08:26Z</time>
      </trkpt>
      <trkpt lat="47.85645" lon="6.82296">
        <ele>553.7</ele>
        <time>2020-08-16T17:08:30Z</time>
      </trkpt>
      <trkpt lat="47.8565" lon="6.82298">
        <ele>553.4</ele>
        <time>2020-08-16T17:08:34Z</time>
      </trkpt>
      <trkpt lat="47.85655" lon="6.823">
        <ele>553.4</ele>
        <time>2020-08-16T17:08:37Z</time>
      </trkpt>
      <trkpt lat="47.85661" lon="6.82302">
        <ele>553.5</ele>
        <time>2020-08-16T17:08:41Z</time>
      </trkpt>
      <trkpt lat="47.85665" lon="6.82303">
        <ele>554.2</ele>
        <time>2020-08-16T17:08:45Z</time>
      </trkpt>
      <trkpt lat="47.8567" lon="6.82308">
        <ele>555.8</ele>
        <time>2020-08-16T17:08:51Z</time>
      </trkpt>
      <trkpt lat="47.85674" lon="6.82312">
        <ele>557.6</ele>
        <time>2020-08-16T17:08:56Z</time>
      </trkpt>
      <trkpt lat="47.85678" lon="6.82317">
        <ele>559.2</ele>
        <time>2020-08-16T17:09:01Z</time>
      </trkpt>
      <trkpt lat="47.85681" lon="6.82324">
        <ele>560.6</ele>
        <time>2020-08-16T17:09:05Z</time>
      </trkpt>
      <trkpt lat="47.85685" lon="6.82331">
        <ele>562.3</ele>
        <time>2020-08-16T17:09:10Z</time>
      </trkpt>
      <trkpt lat="47.85689" lon="6.82336">
        <ele>563.3</ele>
        <time>2020-08-16T17:09:14Z</time>
      </trkpt>
      <trkpt lat="47.85693" lon="6.82341">
        <ele>564.3</ele>
        <time>2020-08-16T17:09:17Z</time>
      </trkpt>
      <trkpt lat="47.85696" lon="6.82346">
        <ele>565.3</ele>
        <time>2020-08-16T17:09:20Z</time>
      </trkpt>
      <trkpt lat="47.85698" lon="6.82352">
        <ele>567.1</ele>
        <time>2020-08-16T17:09:26Z</time>
      </trkpt>
      <trkpt lat="47.85702" lon="6.82356">
        <ele>567.6</ele>
        <time>2020-08-16T17:09:32Z</time>
      </trkpt>
      <trkpt lat="47.85705" lon="6.82363">
        <ele>567.3</ele>
        <time>2020-08-16T17:09:38Z</time>
      </trkpt>
      <trkpt lat="47.85708" lon="6.82369">
        <ele>566.8</ele>
        <time>2020-08-16T17:09:42Z</time>
      </trkpt>
      <trkpt lat="47.85711" lon="6.82374">
        <ele>566</ele>
        <time>2020-08-16T17:09:47Z</time>
      </trkpt>
      <trkpt lat="47.85713" lon="6.8238">
        <ele>565.2</ele>
        <time>2020-08-16T17:09:51Z</time>
      </trkpt>
      <trkpt lat="47.85716" lon="6.82385">
        <ele>564.3</ele>
        <time>2020-08-16T17:09:56Z</time>
      </trkpt>
      <trkpt lat="47.85721" lon="6.8239">
        <ele>563.6</ele>
        <time>2020-08-16T17:10:02Z</time>
      </trkpt>
      <trkpt lat="47.85725" lon="6.82393">
        <ele>563</ele>
        <time>2020-08-16T17:10:09Z</time>
      </trkpt>
      <trkpt lat="47.85727" lon="6.82399">
        <ele>563.3</ele>
        <time>2020-08-16T17:10:28Z</time>
      </trkpt>
      <trkpt lat="47.8573" lon="6.82406">
        <ele>563.5</ele>
        <time>2020-08-16T17:10:32Z</time>
      </trkpt>
      <trkpt lat="47.85732" lon="6.82411">
        <ele>563.7</ele>
        <time>2020-08-16T17:10:36Z</time>
      </trkpt>
      <trkpt lat="47.85735" lon="6.82417">
        <ele>563.7</ele>
        <time>2020-08-16T17:10:40Z</time>
      </trkpt>
      <trkpt lat="47.85739" lon="6.82423">
        <ele>563.7</ele>
        <time>2020-08-16T17:10:45Z</time>
      </trkpt>
      <trkpt lat="47.85741" lon="6.8243">
        <ele>563.3</ele>
        <time>2020-08-16T17:10:50Z</time>
      </trkpt>
      <trkpt lat="47.85744" lon="6.82436">
        <ele>562.8</ele>
        <time>2020-08-16T17:10:55Z</time>
      </trkpt>
      <trkpt lat="47.85746" lon="6.82443">
        <ele>562.1</ele>
        <time>2020-08-16T17:11:00Z</time>
      </trkpt>
      <trkpt lat="47.8575" lon="6.8245">
        <ele>561.6</ele>
        <time>2020-08-16T17:11:05Z</time>
      </trkpt>
      <trkpt lat="47.85753" lon="6.82456">
        <ele>561.3</ele>
        <time>2020-08-16T17:11:09Z</time>
      </trkpt>
      <trkpt lat="47.85755" lon="6.82463">
        <ele>560.9</ele>
        <time>2020-08-16T17:11:14Z</time>
      </trkpt>
      <trkpt lat="47.85757" lon="6.8247">
        <ele>560.7</ele>
        <time>2020-08-16T17:11:18Z</time>
      </trkpt>
      <trkpt lat="47.85759" lon="6.82477">
        <ele>560.7</ele>
        <time>2020-08-16T17:11:23Z</time>
      </trkpt>
      <trkpt lat="47.85761" lon="6.82483">
        <ele>560.7</ele>
        <time>2020-08-16T17:11:27Z</time>
      </trkpt>
      <trkpt lat="47.85763" lon="6.8249">
        <ele>560.7</ele>
        <time>2020-08-16T17:11:32Z</time>
      </trkpt>
      <trkpt lat="47.85765" lon="6.82497">
        <ele>560.5</ele>
        <time>2020-08-16T17:11:36Z</time>
      </trkpt>
      <trkpt lat="47.85768" lon="6.82503">
        <ele>560.2</ele>
        <time>2020-08-16T17:11:41Z</time>
      </trkpt>
      <trkpt lat="47.8577" lon="6.8251">
        <ele>559.9</ele>
        <time>2020-08-16T17:11:45Z</time>
      </trkpt>
      <trkpt lat="47.85773" lon="6.82517">
        <ele>559.7</ele>
        <time>2020-08-16T17:11:49Z</time>
      </trkpt>
      <trkpt lat="47.85775" lon="6.82523">
        <ele>559.5</ele>
        <time>2020-08-16T17:11:53Z</time>
      </trkpt>
      <trkpt lat="47.85777" lon="6.82529">
        <ele>559.3</ele>
        <time>2020-08-16T17:11:57Z</time>
      </trkpt>
      <trkpt lat="47.85779" lon="6.82537">
        <ele>559.3</ele>
        <time>2020-08-16T17:12:02Z</time>
      </trkpt>
      <trkpt lat="47.85781" lon="6.82544">
        <ele>559.4</ele>
        <time>2020-08-16T17:12:07Z</time>
      </trkpt>
      <trkpt lat="47.85783" lon="6.8255">
        <ele>559.6</ele>
        <time>2020-08-16T17:12:12Z</time>
      </trkpt>
      <trkpt lat="47.85786" lon="6.82555">
        <ele>559.7</ele>
        <time>2020-08-16T17:12:16Z</time>
      </trkpt>
      <trkpt lat="47.8579" lon="6.8256">
        <ele>559.8</ele>
        <time>2020-08-16T17:12:20Z</time>
      </trkpt>
      <trkpt lat="47.85794" lon="6.82564">
        <ele>559.9</ele>
        <time>2020-08-16T17:12:23Z</time>
      </trkpt>
      <trkpt lat="47.85798" lon="6.82569">
        <ele>560</ele>
        <time>2020-08-16T17:12:27Z</time>
      </trkpt>
      <trkpt lat="47.85801" lon="6.82575">
        <ele>560.1</ele>
        <time>2020-08-16T17:12:31Z</time>
      </trkpt>
      <trkpt lat="47.85804" lon="6.82581">
        <ele>560.1</ele>
        <time>2020-08-16T17:12:36Z</time>
      </trkpt>
      <trkpt lat="47.85807" lon="6.82587">
        <ele>559.9</ele>
        <time>2020-08-16T17:12:41Z</time>
      </trkpt>
      <trkpt lat="47.85811" lon="6.82591">
        <ele>559.6</ele>
        <time>2020-08-16T17:12:46Z</time>
      </trkpt>
      <trkpt lat="47.85816" lon="6.82595">
        <ele>559.5</ele>
        <time>2020-08-16T17:12:51Z</time>
      </trkpt>
      <trkpt lat="47.8582" lon="6.82598">
        <ele>559.5</ele>
        <time>2020-08-16T17:12:55Z</time>
      </trkpt>
      <trkpt lat="47.85823" lon="6.82603">
        <ele>559.6</ele>
        <time>2020-08-16T17:12:59Z</time>
      </trkpt>
      <trkpt lat="47.85827" lon="6.82609">
        <ele>559.7</ele>
        <time>2020-08-16T17:13:03Z</time>
      </trkpt>
      <trkpt lat="47.8583" lon="6.82616">
        <ele>560</ele>
        <time>2020-08-16T17:13:07Z</time>
      </trkpt>
      <trkpt lat="47.85834" lon="6.82621">
        <ele>560.3</ele>
        <time>2020-08-16T17:13:10Z</time>
      </trkpt>
      <trkpt lat="47.85838" lon="6.82626">
        <ele>560.6</ele>
        <time>2020-08-16T17:13:14Z</time>
      </trkpt>
      <trkpt lat="47.85842" lon="6.82631">
        <ele>560.7</ele>
        <time>2020-08-16T17:13:18Z</time>
      </trkpt>
      <trkpt lat="47.85844" lon="6.82638">
        <ele>560.9</ele>
        <time>2020-08-16T17:13:23Z</time>
      </trkpt>
      <trkpt lat="47.85846" lon="6.82644">
        <ele>561.4</ele>
        <time>2020-08-16T17:13:28Z</time>
      </trkpt>
      <trkpt lat="47.8585" lon="6.8265">
        <ele>561.9</ele>
        <time>2020-08-16T17:13:33Z</time>
      </trkpt>
      <trkpt lat="47.85852" lon="6.82656">
        <ele>562.2</ele>
        <time>2020-08-16T17:13:37Z</time>
      </trkpt>
      <trkpt lat="47.85856" lon="6.82661">
        <ele>562</ele>
        <time>2020-08-16T17:13:43Z</time>
      </trkpt>
      <trkpt lat="47.85861" lon="6.82665">
        <ele>561.3</ele>
        <time>2020-08-16T17:13:48Z</time>
      </trkpt>
      <trkpt lat="47.85865" lon="6.8267">
        <ele>561</ele>
        <time>2020-08-16T17:13:52Z</time>
      </trkpt>
      <trkpt lat="47.85868" lon="6.82675">
        <ele>561.1</ele>
        <time>2020-08-16T17:13:56Z</time>
      </trkpt>
      <trkpt lat="47.85872" lon="6.82681">
        <ele>561.2</ele>
        <time>2020-08-16T17:14:02Z</time>
      </trkpt>
      <trkpt lat="47.85876" lon="6.82685">
        <ele>561.5</ele>
        <time>2020-08-16T17:14:07Z</time>
      </trkpt>
      <trkpt lat="47.8588" lon="6.8269">
        <ele>561.6</ele>
        <time>2020-08-16T17:14:11Z</time>
      </trkpt>
      <trkpt lat="47.85882" lon="6.82697">
        <ele>561.6</ele>
        <time>2020-08-16T17:14:16Z</time>
      </trkpt>
      <trkpt lat="47.8588" lon="6.82704">
        <ele>561.6</ele>
        <time>2020-08-16T17:14:20Z</time>
      </trkpt>
      <trkpt lat="47.85876" lon="6.82707">
        <ele>562.1</ele>
        <time>2020-08-16T17:14:26Z</time>
      </trkpt>
      <trkpt lat="47.85873" lon="6.82713">
        <ele>561.9</ele>
        <time>2020-08-16T17:14:33Z</time>
      </trkpt>
      <trkpt lat="47.85871" lon="6.8272">
        <ele>561.5</ele>
        <time>2020-08-16T17:14:38Z</time>
      </trkpt>
      <trkpt lat="47.85871" lon="6.82727">
        <ele>561</ele>
        <time>2020-08-16T17:14:42Z</time>
      </trkpt>
      <trkpt lat="47.8587" lon="6.82733">
        <ele>560.4</ele>
        <time>2020-08-16T17:14:46Z</time>
      </trkpt>
      <trkpt lat="47.85868" lon="6.8274">
        <ele>559.8</ele>
        <time>2020-08-16T17:14:51Z</time>
      </trkpt>
      <trkpt lat="47.85866" lon="6.82748">
        <ele>559.3</ele>
        <time>2020-08-16T17:14:57Z</time>
      </trkpt>
      <trkpt lat="47.85864" lon="6.82754">
        <ele>559.2</ele>
        <time>2020-08-16T17:15:01Z</time>
      </trkpt>
      <trkpt lat="47.85861" lon="6.8276">
        <ele>559.1</ele>
        <time>2020-08-16T17:15:06Z</time>
      </trkpt>
      <trkpt lat="47.8586" lon="6.82767">
        <ele>559</ele>
        <time>2020-08-16T17:15:11Z</time>
      </trkpt>
      <trkpt lat="47.85857" lon="6.82775">
        <ele>558.8</ele>
        <time>2020-08-16T17:15:16Z</time>
      </trkpt>
      <trkpt lat="47.85853" lon="6.82781">
        <ele>558.8</ele>
        <time>2020-08-16T17:15:20Z</time>
      </trkpt>
      <trkpt lat="47.8585" lon="6.82787">
        <ele>559</ele>
        <time>2020-08-16T17:15:24Z</time>
      </trkpt>
      <trkpt lat="47.85847" lon="6.82793">
        <ele>559</ele>
        <time>2020-08-16T17:15:28Z</time>
      </trkpt>
      <trkpt lat="47.85844" lon="6.82799">
        <ele>559.1</ele>
        <time>2020-08-16T17:15:33Z</time>
      </trkpt>
      <trkpt lat="47.85841" lon="6.82804">
        <ele>559.1</ele>
        <time>2020-08-16T17:15:37Z</time>
      </trkpt>
      <trkpt lat="47.85839" lon="6.82811">
        <ele>559.2</ele>
        <time>2020-08-16T17:15:41Z</time>
      </trkpt>
      <trkpt lat="47.85837" lon="6.82819">
        <ele>559.4</ele>
        <time>2020-08-16T17:15:46Z</time>
      </trkpt>
      <trkpt lat="47.85834" lon="6.82826">
        <ele>559.4</ele>
        <time>2020-08-16T17:15:50Z</time>
      </trkpt>
      <trkpt lat="47.85831" lon="6.82831">
        <ele>559.2</ele>
        <time>2020-08-16T17:15:54Z</time>
      </trkpt>
      <trkpt lat="47.85829" lon="6.82837">
        <ele>558.5</ele>
        <time>2020-08-16T17:15:59Z</time>
      </trkpt>
      <trkpt lat="47.85826" lon="6.82843">
        <ele>558.3</ele>
        <time>2020-08-16T17:16:03Z</time>
      </trkpt>
      <trkpt lat="47.85823" lon="6.82848">
        <ele>558.2</ele>
        <time>2020-08-16T17:16:07Z</time>
      </trkpt>
      <trkpt lat="47.85821" lon="6.82856">
        <ele>558.3</ele>
        <time>2020-08-16T17:16:12Z</time>
      </trkpt>
      <trkpt lat="47.85819" lon="6.82864">
        <ele>558.5</ele>
        <time>2020-08-16T17:16:16Z</time>
      </trkpt>
      <trkpt lat="47.85816" lon="6.82871">
        <ele>558.9</ele>
        <time>2020-08-16T17:16:20Z</time>
      </trkpt>
      <trkpt lat="47.85815" lon="6.82879">
        <ele>559.3</ele>
        <time>2020-08-16T17:16:24Z</time>
      </trkpt>
      <trkpt lat="47.85812" lon="6.82885">
        <ele>559.9</ele>
        <time>2020-08-16T17:16:28Z</time>
      </trkpt>
      <trkpt lat="47.85809" lon="6.82891">
        <ele>560.4</ele>
        <time>2020-08-16T17:16:31Z</time>
      </trkpt>
      <trkpt lat="47.85807" lon="6.82898">
        <ele>561.2</ele>
        <time>2020-08-16T17:16:35Z</time>
      </trkpt>
      <trkpt lat="47.85805" lon="6.82904">
        <ele>561.8</ele>
        <time>2020-08-16T17:16:39Z</time>
      </trkpt>
      <trkpt lat="47.85802" lon="6.82909">
        <ele>562.1</ele>
        <time>2020-08-16T17:16:43Z</time>
      </trkpt>
      <trkpt lat="47.85799" lon="6.82915">
        <ele>562.4</ele>
        <time>2020-08-16T17:16:47Z</time>
      </trkpt>
      <trkpt lat="47.85796" lon="6.8292">
        <ele>562.7</ele>
        <time>2020-08-16T17:16:51Z</time>
      </trkpt>
      <trkpt lat="47.85793" lon="6.82926">
        <ele>562.9</ele>
        <time>2020-08-16T17:16:55Z</time>
      </trkpt>
      <trkpt lat="47.8579" lon="6.82932">
        <ele>563.1</ele>
        <time>2020-08-16T17:16:59Z</time>
      </trkpt>
      <trkpt lat="47.85787" lon="6.82939">
        <ele>563.3</ele>
        <time>2020-08-16T17:17:04Z</time>
      </trkpt>
      <trkpt lat="47.85785" lon="6.82944">
        <ele>563.4</ele>
        <time>2020-08-16T17:17:08Z</time>
      </trkpt>
      <trkpt lat="47.85781" lon="6.8295">
        <ele>563.6</ele>
        <time>2020-08-16T17:17:12Z</time>
      </trkpt>
      <trkpt lat="47.85778" lon="6.82957">
        <ele>563.8</ele>
        <time>2020-08-16T17:17:16Z</time>
      </trkpt>
      <trkpt lat="47.85776" lon="6.82964">
        <ele>563.9</ele>
        <time>2020-08-16T17:17:20Z</time>
      </trkpt>
      <trkpt lat="47.85776" lon="6.82971">
        <ele>564.1</ele>
        <time>2020-08-16T17:17:24Z</time>
      </trkpt>
      <trkpt lat="47.85775" lon="6.82979">
        <ele>564.3</ele>
        <time>2020-08-16T17:17:29Z</time>
      </trkpt>
      <trkpt lat="47.85772" lon="6.82985">
        <ele>564.2</ele>
        <time>2020-08-16T17:17:33Z</time>
      </trkpt>
      <trkpt lat="47.85769" lon="6.82992">
        <ele>564</ele>
        <time>2020-08-16T17:17:37Z</time>
      </trkpt>
      <trkpt lat="47.85767" lon="6.82999">
        <ele>564</ele>
        <time>2020-08-16T17:17:41Z</time>
      </trkpt>
      <trkpt lat="47.85764" lon="6.83006">
        <ele>564.3</ele>
        <time>2020-08-16T17:17:45Z</time>
      </trkpt>
      <trkpt lat="47.85761" lon="6.83013">
        <ele>564.8</ele>
        <time>2020-08-16T17:17:50Z</time>
      </trkpt>
      <trkpt lat="47.85758" lon="6.83019">
        <ele>565</ele>
        <time>2020-08-16T17:17:55Z</time>
      </trkpt>
      <trkpt lat="47.85756" lon="6.83027">
        <ele>565.2</ele>
        <time>2020-08-16T17:18:00Z</time>
      </trkpt>
      <trkpt lat="47.85753" lon="6.83033">
        <ele>565.5</ele>
        <time>2020-08-16T17:18:04Z</time>
      </trkpt>
      <trkpt lat="47.85749" lon="6.8304">
        <ele>565.7</ele>
        <time>2020-08-16T17:18:08Z</time>
      </trkpt>
      <trkpt lat="47.85746" lon="6.83046">
        <ele>565.8</ele>
        <time>2020-08-16T17:18:12Z</time>
      </trkpt>
      <trkpt lat="47.85744" lon="6.83053">
        <ele>565.9</ele>
        <time>2020-08-16T17:18:16Z</time>
      </trkpt>
      <trkpt lat="47.85741" lon="6.83059">
        <ele>565.7</ele>
        <time>2020-08-16T17:18:20Z</time>
      </trkpt>
      <trkpt lat="47.85738" lon="6.83065">
        <ele>565.4</ele>
        <time>2020-08-16T17:18:24Z</time>
      </trkpt>
      <trkpt lat="47.85736" lon="6.8307">
        <ele>565.1</ele>
        <time>2020-08-16T17:18:28Z</time>
      </trkpt>
      <trkpt lat="47.85733" lon="6.83075">
        <ele>564.9</ele>
        <time>2020-08-16T17:18:32Z</time>
      </trkpt>
      <trkpt lat="47.85729" lon="6.83081">
        <ele>564.8</ele>
        <time>2020-08-16T17:18:36Z</time>
      </trkpt>
      <trkpt lat="47.85727" lon="6.83088">
        <ele>565.1</ele>
        <time>2020-08-16T17:18:41Z</time>
      </trkpt>
      <trkpt lat="47.85726" lon="6.83096">
        <ele>565.4</ele>
        <time>2020-08-16T17:18:45Z</time>
      </trkpt>
      <trkpt lat="47.85724" lon="6.83102">
        <ele>565.6</ele>
        <time>2020-08-16T17:18:49Z</time>
      </trkpt>
      <trkpt lat="47.85721" lon="6.83108">
        <ele>566</ele>
        <time>2020-08-16T17:18:53Z</time>
      </trkpt>
      <trkpt lat="47.85717" lon="6.83114">
        <ele>566.5</ele>
        <time>2020-08-16T17:18:57Z</time>
      </trkpt>
      <trkpt lat="47.85715" lon="6.8312">
        <ele>566.8</ele>
        <time>2020-08-16T17:19:01Z</time>
      </trkpt>
      <trkpt lat="47.85712" lon="6.83127">
        <ele>567.1</ele>
        <time>2020-08-16T17:19:05Z</time>
      </trkpt>
      <trkpt lat="47.85711" lon="6.83135">
        <ele>567.4</ele>
        <time>2020-08-16T17:19:11Z</time>
      </trkpt>
      <trkpt lat="47.85709" lon="6.83142">
        <ele>568</ele>
        <time>2020-08-16T17:19:16Z</time>
      </trkpt>
      <trkpt lat="47.85704" lon="6.8314">
        <ele>569.9</ele>
        <time>2020-08-16T17:19:29Z</time>
      </trkpt>
      <trkpt lat="47.8571" lon="6.83142">
        <ele>570.4</ele>
        <time>2020-08-16T17:19:53Z</time>
      </trkpt>
      <trkpt lat="47.85705" lon="6.83142">
        <ele>570.1</ele>
        <time>2020-08-16T17:20:05Z</time>
      </trkpt>
      <trkpt lat="47.85699" lon="6.83139">
        <ele>570.1</ele>
        <time>2020-08-16T17:20:08Z</time>
      </trkpt>
      <trkpt lat="47.85696" lon="6.83127">
        <ele>569.5</ele>
        <time>2020-08-16T17:20:19Z</time>
      </trkpt>
      <trkpt lat="47.85702" lon="6.83128">
        <ele>569.4</ele>
        <time>2020-08-16T17:20:22Z</time>
      </trkpt>
      <trkpt lat="47.85704" lon="6.8314">
        <ele>568.5</ele>
        <time>2020-08-16T17:20:39Z</time>
      </trkpt>
      <trkpt lat="47.857" lon="6.83137">
        <ele>568.5</ele>
        <time>2020-08-16T17:20:43Z</time>
      </trkpt>
      <trkpt lat="47.85703" lon="6.8313">
        <ele>568.2</ele>
        <time>2020-08-16T17:20:52Z</time>
      </trkpt>
      <trkpt lat="47.85707" lon="6.83136">
        <ele>567.9</ele>
        <time>2020-08-16T17:20:57Z</time>
      </trkpt>
      <trkpt lat="47.85711" lon="6.8314">
        <ele>567.5</ele>
        <time>2020-08-16T17:21:05Z</time>
      </trkpt>
      <trkpt lat="47.85706" lon="6.83116">
        <ele>566.9</ele>
        <time>2020-08-16T17:21:49Z</time>
      </trkpt>
      <trkpt lat="47.85704" lon="6.83107">
        <ele>567</ele>
        <time>2020-08-16T17:21:54Z</time>
      </trkpt>
      <trkpt lat="47.857" lon="6.8311">
        <ele>568</ele>
        <time>2020-08-16T17:22:02Z</time>
      </trkpt>
      <trkpt lat="47.85702" lon="6.83117">
        <ele>569.5</ele>
        <time>2020-08-16T17:22:16Z</time>
      </trkpt>
      <trkpt lat="47.85706" lon="6.83123">
        <ele>569.7</ele>
        <time>2020-08-16T17:22:20Z</time>
      </trkpt>
      <trkpt lat="47.85708" lon="6.83131">
        <ele>569.7</ele>
        <time>2020-08-16T17:22:23Z</time>
      </trkpt>
      <trkpt lat="47.85708" lon="6.83138">
        <ele>569.3</ele>
        <time>2020-08-16T17:22:27Z</time>
      </trkpt>
      <trkpt lat="47.85704" lon="6.83125">
        <ele>568.5</ele>
        <time>2020-08-16T17:22:42Z</time>
      </trkpt>
      <trkpt lat="47.8571" lon="6.83125">
        <ele>568.3</ele>
        <time>2020-08-16T17:22:56Z</time>
      </trkpt>
      <trkpt lat="47.85711" lon="6.83133">
        <ele>568.2</ele>
        <time>2020-08-16T17:23:03Z</time>
      </trkpt>
    </trkseg>
  </trk>
</gpx>